EW500LL UMMS-USII
Flight info
| Callsign | EW500LL |
|---|---|
| Flight time | 4h 15m |
| Altitude | 23000 |
| Route | AGNEF2B AGNEF N869 RATIN L999 AGLAN M864 EKPIR/K0500F250 M864 INKEB L94 NAMER T765 SUBIK SUBIK1E |
| Aircraft | PC12/L-SDFGRWY/S |
Departure
| Time | 2026-05-01 08:43 |
|---|---|
| Airport | Minsk National Airport (UMMS) |
Arrival
| Time | 2026-05-01 12:59 |
|---|---|
| Airport | Izhevsk Airport (USII) |
| Time | Latitude | Longitude | Altitude | Speed | Heading |
|---|---|---|---|---|---|
| 2026-05-01 08:12 | 53.88324 | 28.03639 | 666 ft | 0 kts | 49° |
| 2026-05-01 08:34 | 53.88325 | 28.03640 | 665 ft | 1 kts | 46° |
| 2026-05-01 08:34 | 53.88343 | 28.03674 | 665 ft | 7 kts | 48° |
| 2026-05-01 08:34 | 53.88401 | 28.03674 | 666 ft | 13 kts | 317° |
| 2026-05-01 08:35 | 53.88481 | 28.03556 | 666 ft | 15 kts | 330° |
| 2026-05-01 08:35 | 53.88572 | 28.03649 | 666 ft | 18 kts | 49° |
| 2026-05-01 08:35 | 53.88657 | 28.03815 | 666 ft | 20 kts | 47° |
| 2026-05-01 08:35 | 53.88753 | 28.04000 | 666 ft | 21 kts | 49° |
| 2026-05-01 08:36 | 53.88851 | 28.04189 | 666 ft | 22 kts | 50° |
| 2026-05-01 08:36 | 53.88951 | 28.04378 | 666 ft | 22 kts | 47° |
| 2026-05-01 08:36 | 53.89053 | 28.04571 | 666 ft | 22 kts | 47° |
| 2026-05-01 08:36 | 53.89149 | 28.04752 | 666 ft | 13 kts | 48° |
| 2026-05-01 08:37 | 53.89196 | 28.04844 | 665 ft | 10 kts | 63° |
| 2026-05-01 08:37 | 53.89170 | 28.04940 | 665 ft | 10 kts | 138° |
| 2026-05-01 08:37 | 53.89104 | 28.05037 | 665 ft | 15 kts | 137° |
| 2026-05-01 08:37 | 53.89020 | 28.05163 | 665 ft | 17 kts | 139° |
| 2026-05-01 08:38 | 53.88933 | 28.05292 | 665 ft | 16 kts | 139° |
| 2026-05-01 08:38 | 53.88850 | 28.05417 | 665 ft | 16 kts | 138° |
| 2026-05-01 08:38 | 53.88767 | 28.05540 | 665 ft | 17 kts | 138° |
| 2026-05-01 08:38 | 53.88672 | 28.05681 | 665 ft | 19 kts | 141° |
| 2026-05-01 08:39 | 53.88564 | 28.05841 | 665 ft | 22 kts | 139° |
| 2026-05-01 08:39 | 53.88445 | 28.06017 | 665 ft | 24 kts | 137° |
| 2026-05-01 08:39 | 53.88319 | 28.06204 | 665 ft | 25 kts | 139° |
| 2026-05-01 08:39 | 53.88185 | 28.06402 | 665 ft | 26 kts | 139° |
| 2026-05-01 08:40 | 53.87949 | 28.06760 | 666 ft | 15 kts | 123° |
| 2026-05-01 08:40 | 53.87957 | 28.06864 | 665 ft | 0 kts | 46° |
| 2026-05-01 08:41 | 53.87958 | 28.06866 | 665 ft | 2 kts | 48° |
| 2026-05-01 08:42 | 53.87988 | 28.06924 | 664 ft | 11 kts | 48° |
| 2026-05-01 08:42 | 53.88072 | 28.06971 | 662 ft | 17 kts | 324° |
| 2026-05-01 08:42 | 53.88090 | 28.06945 | 662 ft | 0 kts | 320° |
| 2026-05-01 08:42 | 53.88188 | 28.06801 | 663 ft | 43 kts | 321° |
| 2026-05-01 08:43 | 53.88546 | 28.06317 | 667 ft | 84 kts | 317° |
| 2026-05-01 08:43 | 53.88997 | 28.05553 | 812 ft | 102 kts | 321° |
| 2026-05-01 08:43 | 53.89551 | 28.04762 | 1249 ft | 103 kts | 325° |
| 2026-05-01 08:43 | 53.90136 | 28.03917 | 1602 ft | 118 kts | 324° |
| 2026-05-01 08:44 | 53.90806 | 28.02928 | 2014 ft | 135 kts | 323° |
| 2026-05-01 08:44 | 53.91551 | 28.01827 | 2461 ft | 146 kts | 323° |
| 2026-05-01 08:44 | 53.92328 | 28.00670 | 2906 ft | 151 kts | 322° |
| 2026-05-01 08:44 | 53.93129 | 27.99474 | 3347 ft | 155 kts | 323° |
| 2026-05-01 08:45 | 53.93933 | 27.98272 | 3785 ft | 157 kts | 323° |
| 2026-05-01 08:45 | 53.94786 | 27.97063 | 4134 ft | 161 kts | 332° |
| 2026-05-01 08:45 | 53.95864 | 27.96736 | 4496 ft | 162 kts | 9° |
| 2026-05-01 08:45 | 53.96980 | 27.97153 | 4842 ft | 167 kts | 13° |
| 2026-05-01 08:46 | 53.98120 | 27.97612 | 5229 ft | 169 kts | 13° |
| 2026-05-01 08:46 | 53.99257 | 27.98059 | 5666 ft | 167 kts | 13° |
| 2026-05-01 08:46 | 54.00389 | 27.98498 | 6117 ft | 166 kts | 13° |
| 2026-05-01 08:46 | 54.01518 | 27.98938 | 6568 ft | 167 kts | 14° |
| 2026-05-01 08:47 | 54.02657 | 27.99381 | 6998 ft | 168 kts | 14° |
| 2026-05-01 08:47 | 54.03801 | 27.99828 | 7417 ft | 169 kts | 14° |
| 2026-05-01 08:47 | 54.04929 | 28.00379 | 7854 ft | 168 kts | 25° |
| 2026-05-01 08:47 | 54.05823 | 28.01607 | 8246 ft | 172 kts | 47° |
| 2026-05-01 08:48 | 54.06353 | 28.03571 | 8267 ft | 197 kts | 74° |
| 2026-05-01 08:48 | 54.06404 | 28.05994 | 8274 ft | 212 kts | 85° |
| 2026-05-01 08:48 | 54.06373 | 28.08558 | 8273 ft | 221 kts | 85° |
| 2026-05-01 08:48 | 54.06352 | 28.11210 | 8271 ft | 226 kts | 85° |
| 2026-05-01 08:49 | 54.06342 | 28.13914 | 8270 ft | 230 kts | 85° |
| 2026-05-01 08:49 | 54.06332 | 28.16657 | 8269 ft | 233 kts | 85° |
| 2026-05-01 08:49 | 54.06320 | 28.19418 | 8273 ft | 234 kts | 85° |
| 2026-05-01 08:49 | 54.06319 | 28.22191 | 8342 ft | 229 kts | 81° |
| 2026-05-01 08:50 | 54.06465 | 28.24759 | 8784 ft | 215 kts | 78° |
| 2026-05-01 08:50 | 54.06614 | 28.27242 | 9233 ft | 207 kts | 78° |
| 2026-05-01 08:50 | 54.06756 | 28.29636 | 9691 ft | 200 kts | 77° |
| 2026-05-01 08:50 | 54.06894 | 28.31954 | 10143 ft | 194 kts | 77° |
| 2026-05-01 08:51 | 54.07028 | 28.34220 | 10563 ft | 190 kts | 77° |
| 2026-05-01 08:51 | 54.07159 | 28.36438 | 10982 ft | 187 kts | 76° |
| 2026-05-01 08:51 | 54.07323 | 28.38598 | 11406 ft | 179 kts | 68° |
| 2026-05-01 08:51 | 54.07835 | 28.40424 | 11842 ft | 169 kts | 52° |
| 2026-05-01 08:52 | 54.08457 | 28.42123 | 12278 ft | 168 kts | 53° |
| 2026-05-01 08:52 | 54.09067 | 28.43816 | 12720 ft | 167 kts | 53° |
| 2026-05-01 08:52 | 54.09674 | 28.45502 | 13174 ft | 166 kts | 53° |
| 2026-05-01 08:52 | 54.10278 | 28.47173 | 13626 ft | 165 kts | 53° |
| 2026-05-01 08:53 | 54.10876 | 28.48830 | 14085 ft | 164 kts | 53° |
| 2026-05-01 08:53 | 54.11471 | 28.50480 | 14496 ft | 163 kts | 52° |
| 2026-05-01 08:53 | 54.12124 | 28.52026 | 14917 ft | 157 kts | 39° |
| 2026-05-01 08:53 | 54.13041 | 28.52955 | 15349 ft | 153 kts | 24° |
| 2026-05-01 08:54 | 54.14008 | 28.53692 | 15774 ft | 152 kts | 25° |
| 2026-05-01 08:54 | 54.14974 | 28.54442 | 16168 ft | 153 kts | 25° |
| 2026-05-01 08:54 | 54.15953 | 28.55200 | 16561 ft | 155 kts | 25° |
| 2026-05-01 08:54 | 54.16930 | 28.55955 | 16950 ft | 157 kts | 25° |
| 2026-05-01 08:55 | 54.17927 | 28.56725 | 17349 ft | 157 kts | 24° |
| 2026-05-01 08:55 | 54.18922 | 28.57495 | 17758 ft | 157 kts | 24° |
| 2026-05-01 08:55 | 54.19916 | 28.58263 | 18170 ft | 157 kts | 24° |
| 2026-05-01 08:55 | 54.20906 | 28.59029 | 18578 ft | 156 kts | 24° |
| 2026-05-01 08:56 | 54.21894 | 28.59793 | 18929 ft | 155 kts | 25° |
| 2026-05-01 08:56 | 54.22871 | 28.60551 | 19292 ft | 154 kts | 24° |
| 2026-05-01 08:56 | 54.23834 | 28.61297 | 19657 ft | 150 kts | 25° |
| 2026-05-01 08:56 | 54.24762 | 28.62017 | 20022 ft | 146 kts | 25° |
| 2026-05-01 08:57 | 54.25687 | 28.62734 | 20363 ft | 145 kts | 25° |
| 2026-05-01 08:57 | 54.26603 | 28.63444 | 20692 ft | 144 kts | 25° |
| 2026-05-01 08:57 | 54.27511 | 28.64149 | 21025 ft | 143 kts | 25° |
| 2026-05-01 08:57 | 54.28415 | 28.64851 | 21359 ft | 142 kts | 25° |
| 2026-05-01 08:58 | 54.29314 | 28.65549 | 21697 ft | 141 kts | 25° |
| 2026-05-01 08:58 | 54.30213 | 28.66248 | 22001 ft | 143 kts | 25° |
| 2026-05-01 08:58 | 54.31120 | 28.66954 | 22296 ft | 144 kts | 25° |
| 2026-05-01 08:58 | 54.32034 | 28.67665 | 22592 ft | 144 kts | 25° |
| 2026-05-01 08:59 | 54.32951 | 28.68380 | 22899 ft | 145 kts | 25° |
| 2026-05-01 08:59 | 54.33867 | 28.69094 | 23201 ft | 145 kts | 25° |
| 2026-05-01 08:59 | 54.34807 | 28.69828 | 23240 ft | 152 kts | 25° |
| 2026-05-01 08:59 | 54.35770 | 28.70581 | 23241 ft | 156 kts | 25° |
| 2026-05-01 09:00 | 54.36765 | 28.71358 | 23247 ft | 159 kts | 25° |
| 2026-05-01 09:00 | 54.37780 | 28.72151 | 23248 ft | 162 kts | 25° |
| 2026-05-01 09:00 | 54.38814 | 28.72958 | 23246 ft | 164 kts | 25° |
| 2026-05-01 09:00 | 54.39855 | 28.73773 | 23243 ft | 165 kts | 25° |
| 2026-05-01 09:01 | 54.40909 | 28.74596 | 23244 ft | 168 kts | 25° |
| 2026-05-01 09:01 | 54.41987 | 28.75439 | 23250 ft | 171 kts | 25° |
| 2026-05-01 09:01 | 54.43070 | 28.76288 | 23243 ft | 171 kts | 25° |
| 2026-05-01 09:01 | 54.44151 | 28.77134 | 23250 ft | 170 kts | 25° |
| 2026-05-01 09:02 | 54.45223 | 28.77975 | 23244 ft | 169 kts | 25° |
| 2026-05-01 09:02 | 54.46277 | 28.78801 | 23247 ft | 169 kts | 25° |
| 2026-05-01 09:02 | 54.47343 | 28.79637 | 23240 ft | 168 kts | 25° |
| 2026-05-01 09:02 | 54.48359 | 28.80609 | 23245 ft | 168 kts | 36° |
| 2026-05-01 09:03 | 54.49067 | 28.82257 | 23247 ft | 177 kts | 52° |
| 2026-05-01 09:03 | 54.49603 | 28.84163 | 23247 ft | 177 kts | 53° |
| 2026-05-01 09:03 | 54.50139 | 28.86070 | 23249 ft | 177 kts | 53° |
| 2026-05-01 09:03 | 54.50678 | 28.87973 | 23248 ft | 177 kts | 53° |
| 2026-05-01 09:04 | 54.51217 | 28.89875 | 23248 ft | 177 kts | 53° |
| 2026-05-01 09:04 | 54.51575 | 28.91142 | 23248 ft | 177 kts | 53° |
| 2026-05-01 09:04 | 54.52116 | 28.93056 | 23243 ft | 177 kts | 53° |
| 2026-05-01 09:04 | 54.52655 | 28.94964 | 23245 ft | 177 kts | 53° |
| 2026-05-01 09:05 | 54.53194 | 28.96873 | 23242 ft | 177 kts | 53° |
| 2026-05-01 09:05 | 54.53909 | 28.99407 | 23248 ft | 177 kts | 53° |
| 2026-05-01 09:05 | 54.54448 | 29.01321 | 23244 ft | 177 kts | 53° |
| 2026-05-01 09:05 | 54.54811 | 29.02611 | 23241 ft | 177 kts | 53° |
| 2026-05-01 09:06 | 54.55349 | 29.04522 | 23244 ft | 177 kts | 53° |
| 2026-05-01 09:06 | 54.55881 | 29.06411 | 23242 ft | 177 kts | 53° |
| 2026-05-01 09:06 | 54.56417 | 29.08320 | 23248 ft | 177 kts | 53° |
| 2026-05-01 09:06 | 54.56953 | 29.10230 | 23247 ft | 177 kts | 53° |
| 2026-05-01 09:07 | 54.57490 | 29.12145 | 23245 ft | 177 kts | 53° |
| 2026-05-01 09:07 | 54.58026 | 29.14057 | 23239 ft | 177 kts | 53° |
| 2026-05-01 09:07 | 54.58561 | 29.15968 | 23240 ft | 177 kts | 53° |
| 2026-05-01 09:07 | 54.59096 | 29.17881 | 23242 ft | 177 kts | 53° |
| 2026-05-01 09:08 | 54.59630 | 29.19791 | 23245 ft | 177 kts | 53° |
| 2026-05-01 09:08 | 54.60165 | 29.21703 | 23243 ft | 177 kts | 53° |
| 2026-05-01 09:08 | 54.60700 | 29.23621 | 23240 ft | 177 kts | 53° |
| 2026-05-01 09:08 | 54.61236 | 29.25543 | 23242 ft | 178 kts | 53° |
| 2026-05-01 09:09 | 54.61771 | 29.27461 | 23242 ft | 177 kts | 53° |
| 2026-05-01 09:09 | 54.62306 | 29.29383 | 23241 ft | 177 kts | 53° |
| 2026-05-01 09:09 | 54.62840 | 29.31303 | 23241 ft | 177 kts | 53° |
| 2026-05-01 09:09 | 54.63373 | 29.33220 | 23240 ft | 177 kts | 53° |
| 2026-05-01 09:10 | 54.63899 | 29.35114 | 23241 ft | 177 kts | 53° |
| 2026-05-01 09:10 | 54.64431 | 29.37032 | 23241 ft | 177 kts | 53° |
| 2026-05-01 09:10 | 54.64963 | 29.38952 | 23240 ft | 177 kts | 53° |
| 2026-05-01 09:10 | 54.65495 | 29.40873 | 23242 ft | 177 kts | 53° |
| 2026-05-01 09:11 | 54.66028 | 29.42796 | 23238 ft | 177 kts | 53° |
| 2026-05-01 09:11 | 54.66557 | 29.44709 | 23236 ft | 177 kts | 53° |
| 2026-05-01 09:11 | 54.67086 | 29.46623 | 23240 ft | 177 kts | 53° |
| 2026-05-01 09:11 | 54.67653 | 29.48480 | 23245 ft | 170 kts | 45° |
| 2026-05-01 09:12 | 54.68377 | 29.50075 | 23233 ft | 169 kts | 44° |
| 2026-05-01 09:12 | 54.69100 | 29.51673 | 23235 ft | 169 kts | 44° |
| 2026-05-01 09:12 | 54.69822 | 29.53280 | 23237 ft | 169 kts | 44° |
| 2026-05-01 09:12 | 54.70535 | 29.54867 | 23234 ft | 169 kts | 44° |
| 2026-05-01 09:13 | 54.71255 | 29.56470 | 23239 ft | 169 kts | 44° |
| 2026-05-01 09:13 | 54.71978 | 29.58079 | 23236 ft | 169 kts | 44° |
| 2026-05-01 09:13 | 54.72700 | 29.59689 | 23236 ft | 169 kts | 44° |
| 2026-05-01 09:13 | 54.73421 | 29.61296 | 23233 ft | 169 kts | 44° |
| 2026-05-01 09:14 | 54.74141 | 29.62904 | 23232 ft | 169 kts | 44° |
| 2026-05-01 09:14 | 54.74861 | 29.64510 | 23232 ft | 169 kts | 44° |
| 2026-05-01 09:14 | 54.75581 | 29.66117 | 23233 ft | 169 kts | 44° |
| 2026-05-01 09:14 | 54.76300 | 29.67727 | 23232 ft | 169 kts | 44° |
| 2026-05-01 09:15 | 54.77023 | 29.69342 | 23231 ft | 170 kts | 44° |
| 2026-05-01 09:15 | 54.77744 | 29.70958 | 23232 ft | 170 kts | 44° |
| 2026-05-01 09:15 | 54.78467 | 29.72577 | 23228 ft | 170 kts | 44° |
| 2026-05-01 09:15 | 54.79191 | 29.74198 | 23230 ft | 170 kts | 44° |
| 2026-05-01 09:16 | 54.79913 | 29.75819 | 23232 ft | 170 kts | 44° |
| 2026-05-01 09:16 | 54.80625 | 29.77417 | 23237 ft | 169 kts | 44° |
| 2026-05-01 09:16 | 54.81345 | 29.79032 | 23233 ft | 170 kts | 44° |
| 2026-05-01 09:17 | 54.82788 | 29.82277 | 23230 ft | 170 kts | 44° |
| 2026-05-01 09:17 | 54.83512 | 29.83905 | 23229 ft | 170 kts | 45° |
| 2026-05-01 09:17 | 54.84958 | 29.87162 | 23229 ft | 170 kts | 45° |
| 2026-05-01 09:18 | 54.85680 | 29.88791 | 23236 ft | 170 kts | 45° |
| 2026-05-01 09:18 | 54.87120 | 29.92041 | 23233 ft | 169 kts | 45° |
| 2026-05-01 09:19 | 54.88556 | 29.95285 | 23235 ft | 169 kts | 45° |
| 2026-05-01 09:19 | 54.89271 | 29.96904 | 23232 ft | 169 kts | 45° |
| 2026-05-01 09:19 | 54.89982 | 29.98510 | 23127 ft | 173 kts | 45° |
| 2026-05-01 09:20 | 54.91529 | 30.02007 | 22578 ft | 190 kts | 45° |
| 2026-05-01 09:20 | 54.93185 | 30.05771 | 22044 ft | 200 kts | 46° |
| 2026-05-01 09:21 | 54.94899 | 30.09670 | 21522 ft | 205 kts | 46° |
| 2026-05-01 09:21 | 54.95770 | 30.11652 | 21269 ft | 207 kts | 46° |
| 2026-05-01 09:21 | 54.97468 | 30.15529 | 21236 ft | 196 kts | 46° |
| 2026-05-01 09:22 | 54.99088 | 30.19220 | 21235 ft | 188 kts | 46° |
| 2026-05-01 09:22 | 55.00654 | 30.22797 | 21235 ft | 183 kts | 46° |
| 2026-05-01 09:23 | 55.01416 | 30.24538 | 21236 ft | 182 kts | 46° |
| 2026-05-01 09:23 | 55.02939 | 30.28026 | 21235 ft | 179 kts | 46° |
| 2026-05-01 09:24 | 55.04437 | 30.31459 | 21237 ft | 178 kts | 46° |
| 2026-05-01 09:24 | 55.05186 | 30.33178 | 21240 ft | 178 kts | 46° |
| 2026-05-01 09:24 | 55.06684 | 30.36621 | 21242 ft | 178 kts | 46° |
| 2026-05-01 09:25 | 55.08176 | 30.40054 | 21242 ft | 177 kts | 46° |
| 2026-05-01 09:25 | 55.09665 | 30.43484 | 21243 ft | 177 kts | 46° |
| 2026-05-01 09:26 | 55.10407 | 30.45196 | 21242 ft | 177 kts | 46° |
| 2026-05-01 09:26 | 55.11872 | 30.48582 | 21241 ft | 174 kts | 46° |
| 2026-05-01 09:26 | 55.12606 | 30.50274 | 21245 ft | 175 kts | 46° |
| 2026-05-01 09:27 | 55.14077 | 30.53676 | 21244 ft | 176 kts | 46° |
| 2026-05-01 09:27 | 55.14815 | 30.55387 | 21246 ft | 177 kts | 46° |
| 2026-05-01 09:27 | 55.15557 | 30.57106 | 21245 ft | 177 kts | 46° |
| 2026-05-01 09:28 | 55.16298 | 30.58825 | 21246 ft | 177 kts | 46° |
| 2026-05-01 09:28 | 55.17029 | 30.60522 | 21244 ft | 177 kts | 46° |
| 2026-05-01 09:28 | 55.17771 | 30.62245 | 21242 ft | 177 kts | 46° |
| 2026-05-01 09:28 | 55.18511 | 30.63965 | 21243 ft | 177 kts | 46° |
| 2026-05-01 09:29 | 55.19992 | 30.67411 | 21240 ft | 177 kts | 46° |
| 2026-05-01 09:29 | 55.20735 | 30.69141 | 21239 ft | 177 kts | 46° |
| 2026-05-01 09:30 | 55.22178 | 30.72507 | 21736 ft | 170 kts | 46° |
| 2026-05-01 09:30 | 55.22878 | 30.74142 | 22081 ft | 166 kts | 45° |
| 2026-05-01 09:30 | 55.24239 | 30.77320 | 22785 ft | 160 kts | 45° |
| 2026-05-01 09:31 | 55.24888 | 30.78844 | 23135 ft | 151 kts | 45° |
| 2026-05-01 09:31 | 55.25516 | 30.80313 | 23220 ft | 152 kts | 45° |
| 2026-05-01 09:31 | 55.26816 | 30.83350 | 23222 ft | 159 kts | 45° |
| 2026-05-01 09:32 | 55.27484 | 30.84916 | 23227 ft | 161 kts | 45° |
| 2026-05-01 09:32 | 55.28482 | 30.88566 | 23230 ft | 173 kts | 58° |
| 2026-05-01 09:32 | 55.28862 | 30.90583 | 23237 ft | 174 kts | 58° |
| 2026-05-01 09:33 | 55.29247 | 30.92600 | 23237 ft | 175 kts | 58° |
| 2026-05-01 09:33 | 55.29635 | 30.94618 | 23234 ft | 177 kts | 58° |
| 2026-05-01 09:33 | 55.30424 | 30.98743 | 23235 ft | 178 kts | 59° |
| 2026-05-01 09:34 | 55.30816 | 31.00799 | 23236 ft | 179 kts | 59° |
| 2026-05-01 09:34 | 55.31214 | 31.02882 | 23234 ft | 180 kts | 59° |
| 2026-05-01 09:34 | 55.32009 | 31.07054 | 23238 ft | 180 kts | 59° |
| 2026-05-01 09:35 | 55.32402 | 31.09117 | 23239 ft | 180 kts | 59° |
| 2026-05-01 09:35 | 55.33196 | 31.13299 | 23240 ft | 180 kts | 59° |
| 2026-05-01 09:35 | 55.33593 | 31.15390 | 23242 ft | 180 kts | 59° |
| 2026-05-01 09:36 | 55.33991 | 31.17493 | 23241 ft | 181 kts | 59° |
| 2026-05-01 09:36 | 55.34388 | 31.19590 | 23242 ft | 181 kts | 59° |
| 2026-05-01 09:36 | 55.34784 | 31.21686 | 23241 ft | 181 kts | 59° |
| 2026-05-01 09:36 | 55.35181 | 31.23784 | 23241 ft | 181 kts | 59° |
| 2026-05-01 09:37 | 55.35577 | 31.25887 | 23238 ft | 181 kts | 59° |
| 2026-05-01 09:37 | 55.36362 | 31.30055 | 23243 ft | 181 kts | 59° |
| 2026-05-01 09:37 | 55.36758 | 31.32161 | 23242 ft | 181 kts | 59° |
| 2026-05-01 09:38 | 55.37547 | 31.36367 | 23240 ft | 181 kts | 59° |
| 2026-05-01 09:38 | 55.37940 | 31.38469 | 23243 ft | 180 kts | 59° |
| 2026-05-01 09:38 | 55.38332 | 31.40566 | 23248 ft | 181 kts | 59° |
| 2026-05-01 09:39 | 55.39118 | 31.44773 | 23238 ft | 181 kts | 59° |
| 2026-05-01 09:39 | 55.39512 | 31.46887 | 23243 ft | 181 kts | 59° |
| 2026-05-01 09:39 | 55.39904 | 31.48995 | 23245 ft | 181 kts | 59° |
| 2026-05-01 09:40 | 55.40297 | 31.51106 | 23244 ft | 182 kts | 59° |
| 2026-05-01 09:40 | 55.41080 | 31.55324 | 23246 ft | 181 kts | 59° |
| 2026-05-01 09:40 | 55.41471 | 31.57434 | 23244 ft | 181 kts | 59° |
| 2026-05-01 09:41 | 55.41857 | 31.59517 | 23242 ft | 181 kts | 60° |
| 2026-05-01 09:41 | 55.42635 | 31.63730 | 23244 ft | 181 kts | 60° |
| 2026-05-01 09:41 | 55.43023 | 31.65833 | 23245 ft | 180 kts | 60° |
| 2026-05-01 09:42 | 55.43410 | 31.67932 | 23245 ft | 180 kts | 60° |
| 2026-05-01 09:42 | 55.43797 | 31.70032 | 23244 ft | 180 kts | 60° |
| 2026-05-01 09:42 | 55.44570 | 31.74237 | 23246 ft | 180 kts | 60° |
| 2026-05-01 09:43 | 55.45339 | 31.78435 | 23242 ft | 181 kts | 60° |
| 2026-05-01 09:43 | 55.45725 | 31.80544 | 23244 ft | 181 kts | 60° |
| 2026-05-01 09:43 | 55.46110 | 31.82650 | 23239 ft | 181 kts | 60° |
| 2026-05-01 09:44 | 55.46880 | 31.86867 | 23244 ft | 180 kts | 60° |
| 2026-05-01 09:44 | 55.47264 | 31.88974 | 23245 ft | 181 kts | 60° |
| 2026-05-01 09:44 | 55.47647 | 31.91080 | 23243 ft | 181 kts | 60° |
| 2026-05-01 09:45 | 55.48031 | 31.93192 | 23245 ft | 181 kts | 60° |
| 2026-05-01 09:45 | 55.48797 | 31.97413 | 23245 ft | 181 kts | 60° |
| 2026-05-01 09:45 | 55.49180 | 31.99527 | 23244 ft | 181 kts | 60° |
| 2026-05-01 09:46 | 55.49562 | 32.01636 | 23243 ft | 180 kts | 60° |
| 2026-05-01 09:46 | 55.49939 | 32.03719 | 23244 ft | 181 kts | 60° |
| 2026-05-01 09:46 | 55.50320 | 32.05831 | 23246 ft | 181 kts | 60° |
| 2026-05-01 09:46 | 55.50702 | 32.07946 | 23244 ft | 181 kts | 60° |
| 2026-05-01 09:47 | 55.51083 | 32.10066 | 23244 ft | 181 kts | 60° |
| 2026-05-01 09:47 | 55.51463 | 32.12178 | 23245 ft | 181 kts | 60° |
| 2026-05-01 09:47 | 55.51849 | 32.14325 | 23244 ft | 182 kts | 60° |
| 2026-05-01 09:47 | 55.52227 | 32.16429 | 23249 ft | 182 kts | 60° |
| 2026-05-01 09:48 | 55.52610 | 32.18562 | 23243 ft | 182 kts | 60° |
| 2026-05-01 09:48 | 55.52989 | 32.20678 | 23244 ft | 182 kts | 60° |
| 2026-05-01 09:48 | 55.53374 | 32.22834 | 23244 ft | 182 kts | 60° |
| 2026-05-01 09:48 | 55.53755 | 32.24963 | 23241 ft | 182 kts | 60° |
| 2026-05-01 09:49 | 55.54136 | 32.27096 | 23243 ft | 182 kts | 60° |
| 2026-05-01 09:49 | 55.54517 | 32.29237 | 23247 ft | 182 kts | 60° |
| 2026-05-01 09:49 | 55.54893 | 32.31347 | 23245 ft | 182 kts | 60° |
| 2026-05-01 09:49 | 55.55273 | 32.33484 | 23241 ft | 182 kts | 61° |
| 2026-05-01 09:50 | 55.55653 | 32.35625 | 23243 ft | 182 kts | 61° |
| 2026-05-01 09:50 | 55.56034 | 32.37767 | 23245 ft | 182 kts | 61° |
| 2026-05-01 09:50 | 55.56413 | 32.39907 | 23249 ft | 183 kts | 61° |
| 2026-05-01 09:50 | 55.56794 | 32.42058 | 23242 ft | 183 kts | 61° |
| 2026-05-01 09:51 | 55.57173 | 32.44205 | 23241 ft | 183 kts | 61° |
| 2026-05-01 09:51 | 55.57553 | 32.46356 | 23241 ft | 183 kts | 61° |
| 2026-05-01 09:51 | 55.57929 | 32.48484 | 23244 ft | 184 kts | 61° |
| 2026-05-01 09:51 | 55.58309 | 32.50643 | 23246 ft | 183 kts | 61° |
| 2026-05-01 09:52 | 55.58688 | 32.52797 | 23243 ft | 183 kts | 61° |
| 2026-05-01 09:52 | 55.59067 | 32.54952 | 23241 ft | 183 kts | 61° |
| 2026-05-01 09:52 | 55.59445 | 32.57109 | 23243 ft | 183 kts | 61° |
| 2026-05-01 09:52 | 55.59824 | 32.59265 | 23240 ft | 183 kts | 61° |
| 2026-05-01 09:53 | 55.60202 | 32.61423 | 23242 ft | 183 kts | 61° |
| 2026-05-01 09:53 | 55.60451 | 32.62849 | 23243 ft | 183 kts | 61° |
| 2026-05-01 09:53 | 55.60950 | 32.65705 | 23238 ft | 183 kts | 61° |
| 2026-05-01 09:53 | 55.61326 | 32.67861 | 23240 ft | 183 kts | 61° |
| 2026-05-01 09:54 | 55.61702 | 32.70017 | 23240 ft | 183 kts | 61° |
| 2026-05-01 09:54 | 55.62077 | 32.72170 | 23242 ft | 183 kts | 61° |
| 2026-05-01 09:54 | 55.62330 | 32.73626 | 23238 ft | 183 kts | 61° |
| 2026-05-01 09:54 | 55.62707 | 32.75792 | 23243 ft | 184 kts | 61° |
| 2026-05-01 09:55 | 55.63077 | 32.77927 | 23238 ft | 183 kts | 61° |
| 2026-05-01 09:55 | 55.63451 | 32.80084 | 23243 ft | 183 kts | 61° |
| 2026-05-01 09:55 | 55.63824 | 32.82240 | 23247 ft | 183 kts | 62° |
| 2026-05-01 09:55 | 55.64198 | 32.84401 | 23246 ft | 183 kts | 62° |
| 2026-05-01 09:56 | 55.64572 | 32.86564 | 23239 ft | 184 kts | 62° |
| 2026-05-01 09:56 | 55.64945 | 32.88726 | 23242 ft | 184 kts | 62° |
| 2026-05-01 09:56 | 55.65319 | 32.90896 | 23240 ft | 184 kts | 62° |
| 2026-05-01 09:56 | 55.65692 | 32.93067 | 23243 ft | 184 kts | 62° |
| 2026-05-01 09:57 | 55.66066 | 32.95242 | 23239 ft | 185 kts | 62° |
| 2026-05-01 09:57 | 55.66440 | 32.97419 | 23241 ft | 185 kts | 62° |
| 2026-05-01 09:57 | 55.66815 | 32.99605 | 23242 ft | 185 kts | 62° |
| 2026-05-01 09:57 | 55.67188 | 33.01787 | 23244 ft | 185 kts | 62° |
| 2026-05-01 09:58 | 55.67562 | 33.03974 | 23247 ft | 186 kts | 62° |
| 2026-05-01 09:58 | 55.67941 | 33.06164 | 23245 ft | 186 kts | 62° |
| 2026-05-01 09:58 | 55.68324 | 33.08350 | 23241 ft | 186 kts | 62° |
| 2026-05-01 09:58 | 55.68713 | 33.10540 | 23238 ft | 186 kts | 61° |
| 2026-05-01 09:59 | 55.69109 | 33.12734 | 23244 ft | 186 kts | 61° |
| 2026-05-01 09:59 | 55.69507 | 33.14915 | 23245 ft | 186 kts | 61° |
| 2026-05-01 09:59 | 55.69910 | 33.17095 | 23241 ft | 186 kts | 61° |
| 2026-05-01 09:59 | 55.70312 | 33.19245 | 23244 ft | 186 kts | 61° |
| 2026-05-01 10:00 | 55.70727 | 33.21425 | 23237 ft | 186 kts | 60° |
| 2026-05-01 10:00 | 55.71145 | 33.23600 | 23237 ft | 186 kts | 60° |
| 2026-05-01 10:00 | 55.71568 | 33.25773 | 23239 ft | 186 kts | 60° |
| 2026-05-01 10:00 | 55.71996 | 33.27942 | 23237 ft | 187 kts | 60° |
| 2026-05-01 10:01 | 55.72430 | 33.30113 | 23235 ft | 187 kts | 60° |
| 2026-05-01 10:01 | 55.72869 | 33.32282 | 23236 ft | 187 kts | 60° |
| 2026-05-01 10:01 | 55.73312 | 33.34446 | 23238 ft | 187 kts | 59° |
| 2026-05-01 10:01 | 55.73760 | 33.36609 | 23235 ft | 187 kts | 59° |
| 2026-05-01 10:02 | 55.74212 | 33.38765 | 23237 ft | 187 kts | 59° |
| 2026-05-01 10:02 | 55.74670 | 33.40924 | 23236 ft | 187 kts | 59° |
| 2026-05-01 10:02 | 55.75135 | 33.43086 | 23236 ft | 187 kts | 59° |
| 2026-05-01 10:02 | 55.75605 | 33.45245 | 23239 ft | 187 kts | 59° |
| 2026-05-01 10:03 | 55.76080 | 33.47403 | 23221 ft | 188 kts | 58° |
| 2026-05-01 10:03 | 55.76560 | 33.49561 | 23226 ft | 188 kts | 58° |
| 2026-05-01 10:03 | 55.77011 | 33.51563 | 23228 ft | 188 kts | 58° |
| 2026-05-01 10:03 | 55.77500 | 33.53713 | 23221 ft | 187 kts | 58° |
| 2026-05-01 10:04 | 55.77990 | 33.55844 | 23237 ft | 188 kts | 58° |
| 2026-05-01 10:04 | 55.78488 | 33.57987 | 23230 ft | 188 kts | 58° |
| 2026-05-01 10:04 | 55.78993 | 33.60133 | 23231 ft | 188 kts | 58° |
| 2026-05-01 10:04 | 55.79503 | 33.62275 | 23235 ft | 188 kts | 58° |
| 2026-05-01 10:05 | 55.80018 | 33.64415 | 23232 ft | 189 kts | 57° |
| 2026-05-01 10:05 | 55.80540 | 33.66558 | 23239 ft | 189 kts | 57° |
| 2026-05-01 10:05 | 55.81061 | 33.68677 | 23237 ft | 189 kts | 57° |
| 2026-05-01 10:05 | 55.81600 | 33.70840 | 23237 ft | 189 kts | 57° |
| 2026-05-01 10:06 | 55.82136 | 33.72972 | 23229 ft | 189 kts | 57° |
| 2026-05-01 10:06 | 55.82672 | 33.75077 | 23234 ft | 189 kts | 56° |
| 2026-05-01 10:06 | 55.83221 | 33.77214 | 23230 ft | 190 kts | 56° |
| 2026-05-01 10:06 | 55.83776 | 33.79348 | 23233 ft | 190 kts | 56° |
| 2026-05-01 10:07 | 55.84337 | 33.81485 | 23230 ft | 191 kts | 56° |
| 2026-05-01 10:07 | 55.84903 | 33.83617 | 23232 ft | 191 kts | 56° |
| 2026-05-01 10:07 | 55.85474 | 33.85745 | 23236 ft | 190 kts | 56° |
| 2026-05-01 10:07 | 55.86050 | 33.87873 | 23231 ft | 190 kts | 56° |
| 2026-05-01 10:08 | 55.87215 | 33.92115 | 23231 ft | 191 kts | 55° |
| 2026-05-01 10:08 | 55.87806 | 33.94235 | 23231 ft | 191 kts | 55° |
| 2026-05-01 10:08 | 55.88401 | 33.96353 | 23234 ft | 191 kts | 55° |
| 2026-05-01 10:09 | 55.89001 | 33.98468 | 23227 ft | 191 kts | 55° |
| 2026-05-01 10:09 | 55.89606 | 34.00577 | 23231 ft | 191 kts | 54° |
| 2026-05-01 10:09 | 55.90210 | 34.02680 | 23231 ft | 191 kts | 56° |
| 2026-05-01 10:09 | 55.90444 | 34.05094 | 23233 ft | 208 kts | 78° |
| 2026-05-01 10:10 | 55.90318 | 34.07666 | 23229 ft | 213 kts | 83° |
| 2026-05-01 10:10 | 55.90167 | 34.10290 | 23232 ft | 211 kts | 82° |
| 2026-05-01 10:10 | 55.89979 | 34.15515 | 23236 ft | 212 kts | 81° |
| 2026-05-01 10:11 | 55.89885 | 34.18140 | 23227 ft | 213 kts | 81° |
| 2026-05-01 10:11 | 55.89786 | 34.20771 | 23233 ft | 213 kts | 81° |
| 2026-05-01 10:11 | 55.89687 | 34.23392 | 23235 ft | 213 kts | 81° |
| 2026-05-01 10:11 | 55.89588 | 34.26029 | 23239 ft | 213 kts | 81° |
| 2026-05-01 10:12 | 55.89488 | 34.28689 | 23232 ft | 213 kts | 82° |
| 2026-05-01 10:12 | 55.89389 | 34.31295 | 23232 ft | 214 kts | 82° |
| 2026-05-01 10:12 | 55.89241 | 34.36571 | 23238 ft | 208 kts | 76° |
| 2026-05-01 10:13 | 55.89299 | 34.39108 | 23233 ft | 208 kts | 76° |
| 2026-05-01 10:13 | 55.89351 | 34.41687 | 23234 ft | 209 kts | 76° |
| 2026-05-01 10:13 | 55.89400 | 34.44273 | 23234 ft | 209 kts | 77° |
| 2026-05-01 10:14 | 55.89500 | 34.49495 | 23235 ft | 210 kts | 77° |
| 2026-05-01 10:14 | 55.89549 | 34.52073 | 23236 ft | 210 kts | 77° |
| 2026-05-01 10:14 | 55.89597 | 34.54692 | 23234 ft | 211 kts | 77° |
| 2026-05-01 10:14 | 55.89646 | 34.57308 | 23232 ft | 211 kts | 77° |
| 2026-05-01 10:15 | 55.89694 | 34.59925 | 23230 ft | 211 kts | 77° |
| 2026-05-01 10:15 | 55.89741 | 34.62543 | 23232 ft | 211 kts | 77° |
| 2026-05-01 10:15 | 55.89787 | 34.65128 | 23232 ft | 211 kts | 77° |
| 2026-05-01 10:15 | 55.89833 | 34.67751 | 23231 ft | 212 kts | 77° |
| 2026-05-01 10:16 | 55.89879 | 34.70372 | 23231 ft | 212 kts | 77° |
| 2026-05-01 10:16 | 55.89924 | 34.72995 | 23233 ft | 212 kts | 77° |
| 2026-05-01 10:16 | 55.90013 | 34.78243 | 23230 ft | 212 kts | 77° |
| 2026-05-01 10:17 | 55.90057 | 34.80870 | 23230 ft | 212 kts | 77° |
| 2026-05-01 10:17 | 55.90143 | 34.86138 | 23234 ft | 212 kts | 78° |
| 2026-05-01 10:17 | 55.90185 | 34.88777 | 23233 ft | 213 kts | 78° |
| 2026-05-01 10:18 | 55.90267 | 34.94048 | 23229 ft | 213 kts | 78° |
| 2026-05-01 10:18 | 55.90307 | 34.96688 | 23234 ft | 213 kts | 78° |
| 2026-05-01 10:18 | 55.90347 | 34.99329 | 23227 ft | 213 kts | 78° |
| 2026-05-01 10:19 | 55.90387 | 35.01970 | 23230 ft | 213 kts | 78° |
| 2026-05-01 10:19 | 55.90426 | 35.04614 | 23231 ft | 213 kts | 78° |
| 2026-05-01 10:19 | 55.90465 | 35.07257 | 23229 ft | 213 kts | 78° |
| 2026-05-01 10:20 | 55.90545 | 35.12539 | 23226 ft | 213 kts | 78° |
| 2026-05-01 10:20 | 55.90583 | 35.15185 | 23230 ft | 213 kts | 78° |
| 2026-05-01 10:20 | 55.90621 | 35.17832 | 23229 ft | 213 kts | 78° |
| 2026-05-01 10:20 | 55.90659 | 35.20477 | 23228 ft | 214 kts | 78° |
| 2026-05-01 10:21 | 55.90696 | 35.23127 | 23229 ft | 214 kts | 78° |
| 2026-05-01 10:21 | 55.90767 | 35.28405 | 23228 ft | 214 kts | 78° |
| 2026-05-01 10:21 | 55.90803 | 35.31061 | 23224 ft | 214 kts | 78° |
| 2026-05-01 10:22 | 55.90871 | 35.36363 | 23351 ft | 211 kts | 79° |
| 2026-05-01 10:22 | 55.90931 | 35.41458 | 24156 ft | 197 kts | 78° |
| 2026-05-01 10:23 | 55.90960 | 35.43858 | 24567 ft | 190 kts | 77° |
| 2026-05-01 10:23 | 55.91017 | 35.48412 | 25209 ft | 184 kts | 76° |
| 2026-05-01 10:23 | 55.91050 | 35.50745 | 25212 ft | 191 kts | 77° |
| 2026-05-01 10:24 | 55.91102 | 35.55552 | 25224 ft | 197 kts | 77° |
| 2026-05-01 10:24 | 55.91155 | 35.60499 | 25225 ft | 202 kts | 78° |
| 2026-05-01 10:25 | 55.91208 | 35.65540 | 25223 ft | 205 kts | 78° |
| 2026-05-01 10:25 | 55.91261 | 35.70692 | 25221 ft | 210 kts | 78° |
| 2026-05-01 10:26 | 55.91286 | 35.73303 | 25220 ft | 212 kts | 78° |
| 2026-05-01 10:26 | 55.91311 | 35.75937 | 25224 ft | 213 kts | 79° |
| 2026-05-01 10:26 | 55.91360 | 35.81233 | 25221 ft | 214 kts | 79° |
| 2026-05-01 10:27 | 55.91481 | 35.86488 | 25219 ft | 212 kts | 75° |
| 2026-05-01 10:27 | 55.91715 | 35.91744 | 25223 ft | 213 kts | 76° |
| 2026-05-01 10:28 | 55.91831 | 35.94382 | 25219 ft | 213 kts | 76° |
| 2026-05-01 10:28 | 55.92067 | 35.99657 | 25217 ft | 214 kts | 76° |
| 2026-05-01 10:28 | 55.92185 | 36.02311 | 25220 ft | 215 kts | 76° |
| 2026-05-01 10:29 | 55.92418 | 36.07632 | 25218 ft | 216 kts | 76° |
| 2026-05-01 10:29 | 55.92534 | 36.10306 | 25215 ft | 216 kts | 76° |
| 2026-05-01 10:30 | 55.92763 | 36.15609 | 25213 ft | 216 kts | 76° |
| 2026-05-01 10:30 | 55.92992 | 36.20964 | 25210 ft | 217 kts | 76° |
| 2026-05-01 10:31 | 55.93219 | 36.26321 | 25210 ft | 218 kts | 76° |
| 2026-05-01 10:31 | 55.93445 | 36.31718 | 25208 ft | 218 kts | 77° |
| 2026-05-01 10:32 | 55.93669 | 36.37126 | 25208 ft | 219 kts | 77° |
| 2026-05-01 10:32 | 55.93780 | 36.39832 | 25208 ft | 219 kts | 77° |
| 2026-05-01 10:32 | 55.94001 | 36.45240 | 25208 ft | 218 kts | 77° |
| 2026-05-01 10:33 | 55.94219 | 36.50655 | 25204 ft | 219 kts | 77° |
| 2026-05-01 10:33 | 55.94434 | 36.56047 | 25203 ft | 219 kts | 77° |
| 2026-05-01 10:34 | 55.94542 | 36.58768 | 25206 ft | 220 kts | 77° |
| 2026-05-01 10:34 | 55.94649 | 36.61489 | 25206 ft | 220 kts | 78° |
| 2026-05-01 10:34 | 55.94756 | 36.64215 | 25198 ft | 220 kts | 77° |
| 2026-05-01 10:35 | 55.94968 | 36.69676 | 25195 ft | 221 kts | 78° |
| 2026-05-01 10:35 | 55.95073 | 36.72407 | 25199 ft | 221 kts | 78° |
| 2026-05-01 10:35 | 55.95177 | 36.75146 | 25199 ft | 220 kts | 78° |
| 2026-05-01 10:35 | 55.95276 | 36.77835 | 25196 ft | 212 kts | 78° |
| 2026-05-01 10:36 | 55.95479 | 36.83076 | 25185 ft | 215 kts | 78° |
| 2026-05-01 10:36 | 55.95579 | 36.85758 | 25186 ft | 217 kts | 78° |
| 2026-05-01 10:36 | 55.95678 | 36.88451 | 25187 ft | 218 kts | 78° |
| 2026-05-01 10:37 | 55.95778 | 36.91158 | 25188 ft | 219 kts | 78° |
| 2026-05-01 10:37 | 55.95977 | 36.96613 | 25195 ft | 221 kts | 78° |
| 2026-05-01 10:37 | 55.96077 | 36.99358 | 25190 ft | 222 kts | 79° |
| 2026-05-01 10:38 | 55.96176 | 37.02109 | 25191 ft | 223 kts | 79° |
| 2026-05-01 10:38 | 55.96275 | 37.04877 | 25192 ft | 223 kts | 79° |
| 2026-05-01 10:38 | 55.96372 | 37.07600 | 25190 ft | 223 kts | 79° |
| 2026-05-01 10:38 | 55.96470 | 37.10370 | 25191 ft | 224 kts | 79° |
| 2026-05-01 10:39 | 55.96567 | 37.13139 | 25189 ft | 224 kts | 79° |
| 2026-05-01 10:39 | 55.96664 | 37.15923 | 25189 ft | 224 kts | 79° |
| 2026-05-01 10:39 | 55.96760 | 37.18700 | 25191 ft | 224 kts | 79° |
| 2026-05-01 10:39 | 55.96856 | 37.21483 | 25196 ft | 225 kts | 79° |
| 2026-05-01 10:40 | 55.96921 | 37.23367 | 25192 ft | 225 kts | 79° |
| 2026-05-01 10:40 | 55.97016 | 37.26158 | 25194 ft | 226 kts | 80° |
| 2026-05-01 10:40 | 55.97111 | 37.28960 | 25194 ft | 226 kts | 80° |
| 2026-05-01 10:40 | 55.97205 | 37.31762 | 25193 ft | 226 kts | 80° |
| 2026-05-01 10:41 | 55.97293 | 37.34532 | 25194 ft | 227 kts | 80° |
| 2026-05-01 10:41 | 55.97380 | 37.37346 | 25190 ft | 227 kts | 80° |
| 2026-05-01 10:41 | 55.97554 | 37.42943 | 25191 ft | 227 kts | 81° |
| 2026-05-01 10:42 | 55.97643 | 37.45820 | 25192 ft | 228 kts | 81° |
| 2026-05-01 10:42 | 55.97728 | 37.48610 | 25191 ft | 228 kts | 81° |
| 2026-05-01 10:42 | 55.97814 | 37.51435 | 25194 ft | 228 kts | 81° |
| 2026-05-01 10:42 | 55.97899 | 37.54262 | 25194 ft | 228 kts | 81° |
| 2026-05-01 10:43 | 55.97984 | 37.57096 | 25192 ft | 229 kts | 81° |
| 2026-05-01 10:43 | 55.98068 | 37.59939 | 25189 ft | 229 kts | 81° |
| 2026-05-01 10:43 | 55.98152 | 37.62786 | 25193 ft | 230 kts | 81° |
| 2026-05-01 10:43 | 55.98235 | 37.65639 | 25193 ft | 230 kts | 81° |
| 2026-05-01 10:44 | 55.98317 | 37.68486 | 25190 ft | 230 kts | 81° |
| 2026-05-01 10:44 | 55.98400 | 37.71345 | 25188 ft | 230 kts | 82° |
| 2026-05-01 10:44 | 55.98481 | 37.74199 | 25192 ft | 230 kts | 82° |
| 2026-05-01 10:44 | 55.98562 | 37.77060 | 25193 ft | 230 kts | 82° |
| 2026-05-01 10:45 | 55.98644 | 37.79881 | 25193 ft | 231 kts | 82° |
| 2026-05-01 10:45 | 55.98728 | 37.82743 | 25193 ft | 231 kts | 82° |
| 2026-05-01 10:45 | 55.98811 | 37.85611 | 25194 ft | 231 kts | 82° |
| 2026-05-01 10:45 | 55.98893 | 37.88488 | 25195 ft | 232 kts | 82° |
| 2026-05-01 10:46 | 55.98974 | 37.91376 | 25193 ft | 233 kts | 82° |
| 2026-05-01 10:46 | 55.99055 | 37.94271 | 25194 ft | 233 kts | 82° |
| 2026-05-01 10:46 | 55.99136 | 37.97161 | 25195 ft | 233 kts | 82° |
| 2026-05-01 10:46 | 55.99215 | 38.00055 | 25193 ft | 233 kts | 82° |
| 2026-05-01 10:47 | 55.99294 | 38.02944 | 25193 ft | 233 kts | 83° |
| 2026-05-01 10:47 | 55.99372 | 38.05808 | 25195 ft | 234 kts | 83° |
| 2026-05-01 10:47 | 55.99450 | 38.08710 | 25199 ft | 234 kts | 83° |
| 2026-05-01 10:47 | 55.99528 | 38.11623 | 25199 ft | 235 kts | 83° |
| 2026-05-01 10:48 | 55.99604 | 38.14541 | 25193 ft | 235 kts | 83° |
| 2026-05-01 10:48 | 55.99681 | 38.17474 | 25199 ft | 236 kts | 83° |
| 2026-05-01 10:48 | 55.99757 | 38.20406 | 25196 ft | 236 kts | 83° |
| 2026-05-01 10:48 | 55.99832 | 38.23341 | 25198 ft | 237 kts | 83° |
| 2026-05-01 10:49 | 55.99907 | 38.26281 | 25197 ft | 237 kts | 83° |
| 2026-05-01 10:49 | 55.99981 | 38.29228 | 25199 ft | 238 kts | 83° |
| 2026-05-01 10:49 | 56.00055 | 38.32180 | 25199 ft | 238 kts | 84° |
| 2026-05-01 10:49 | 56.00128 | 38.35137 | 25198 ft | 238 kts | 84° |
| 2026-05-01 10:50 | 56.00199 | 38.38060 | 25198 ft | 239 kts | 84° |
| 2026-05-01 10:50 | 56.00271 | 38.41033 | 25200 ft | 239 kts | 84° |
| 2026-05-01 10:50 | 56.00343 | 38.44003 | 25200 ft | 240 kts | 84° |
| 2026-05-01 10:50 | 56.00413 | 38.46985 | 25204 ft | 240 kts | 84° |
| 2026-05-01 10:51 | 56.00484 | 38.49969 | 25195 ft | 241 kts | 84° |
| 2026-05-01 10:51 | 56.00553 | 38.52966 | 25200 ft | 242 kts | 84° |
| 2026-05-01 10:51 | 56.00622 | 38.55969 | 25201 ft | 242 kts | 84° |
| 2026-05-01 10:51 | 56.00690 | 38.58947 | 25200 ft | 243 kts | 85° |
| 2026-05-01 10:52 | 56.00758 | 38.61964 | 25202 ft | 243 kts | 85° |
| 2026-05-01 10:52 | 56.00825 | 38.64982 | 25201 ft | 243 kts | 85° |
| 2026-05-01 10:52 | 56.00892 | 38.68005 | 25204 ft | 243 kts | 85° |
| 2026-05-01 10:52 | 56.00958 | 38.71029 | 25207 ft | 244 kts | 85° |
| 2026-05-01 10:53 | 56.01023 | 38.74062 | 25205 ft | 244 kts | 85° |
| 2026-05-01 10:53 | 56.01088 | 38.77091 | 25202 ft | 244 kts | 85° |
| 2026-05-01 10:53 | 56.01152 | 38.80139 | 25202 ft | 245 kts | 85° |
| 2026-05-01 10:53 | 56.01215 | 38.83186 | 25202 ft | 245 kts | 85° |
| 2026-05-01 10:54 | 56.01278 | 38.86237 | 25204 ft | 245 kts | 86° |
| 2026-05-01 10:54 | 56.01340 | 38.89285 | 25208 ft | 246 kts | 86° |
| 2026-05-01 10:54 | 56.01400 | 38.92301 | 25205 ft | 246 kts | 86° |
| 2026-05-01 10:54 | 56.01461 | 38.95355 | 25206 ft | 246 kts | 86° |
| 2026-05-01 10:55 | 56.01521 | 38.98426 | 25206 ft | 247 kts | 86° |
| 2026-05-01 10:55 | 56.01580 | 39.01494 | 25206 ft | 247 kts | 86° |
| 2026-05-01 10:55 | 56.01639 | 39.04564 | 25205 ft | 247 kts | 86° |
| 2026-05-01 10:55 | 56.01697 | 39.07639 | 25204 ft | 248 kts | 86° |
| 2026-05-01 10:56 | 56.01754 | 39.10716 | 25204 ft | 248 kts | 86° |
| 2026-05-01 10:56 | 56.01810 | 39.13808 | 25205 ft | 249 kts | 86° |
| 2026-05-01 10:56 | 56.01866 | 39.16907 | 25204 ft | 250 kts | 86° |
| 2026-05-01 10:56 | 56.01921 | 39.20018 | 25205 ft | 250 kts | 86° |
| 2026-05-01 10:57 | 56.01976 | 39.23118 | 25210 ft | 250 kts | 87° |
| 2026-05-01 10:57 | 56.02029 | 39.26223 | 25209 ft | 250 kts | 87° |
| 2026-05-01 10:57 | 56.02082 | 39.29291 | 25207 ft | 250 kts | 87° |
| 2026-05-01 10:57 | 56.02134 | 39.32405 | 25209 ft | 251 kts | 87° |
| 2026-05-01 10:58 | 56.02186 | 39.35525 | 25206 ft | 251 kts | 87° |
| 2026-05-01 10:58 | 56.02237 | 39.38648 | 25205 ft | 252 kts | 87° |
| 2026-05-01 10:58 | 56.02287 | 39.41777 | 25205 ft | 252 kts | 87° |
| 2026-05-01 10:58 | 56.02336 | 39.44909 | 25209 ft | 252 kts | 88° |
| 2026-05-01 10:59 | 56.02385 | 39.48039 | 25209 ft | 252 kts | 88° |
| 2026-05-01 10:59 | 56.02433 | 39.51192 | 25210 ft | 253 kts | 88° |
| 2026-05-01 10:59 | 56.02480 | 39.54329 | 25207 ft | 253 kts | 88° |
| 2026-05-01 10:59 | 56.02527 | 39.57483 | 25207 ft | 253 kts | 88° |
| 2026-05-01 11:00 | 56.02573 | 39.60630 | 25206 ft | 254 kts | 88° |
| 2026-05-01 11:00 | 56.02618 | 39.63782 | 25205 ft | 254 kts | 88° |
| 2026-05-01 11:00 | 56.02668 | 39.66939 | 25210 ft | 254 kts | 88° |
| 2026-05-01 11:00 | 56.02722 | 39.70105 | 25208 ft | 254 kts | 88° |
| 2026-05-01 11:01 | 56.02773 | 39.73224 | 25214 ft | 255 kts | 88° |
| 2026-05-01 11:01 | 56.02823 | 39.76398 | 25211 ft | 255 kts | 88° |
| 2026-05-01 11:01 | 56.02872 | 39.79572 | 25209 ft | 255 kts | 89° |
| 2026-05-01 11:01 | 56.02920 | 39.82747 | 25211 ft | 256 kts | 89° |
| 2026-05-01 11:02 | 56.02968 | 39.85924 | 25211 ft | 256 kts | 89° |
| 2026-05-01 11:02 | 56.03015 | 39.89104 | 25207 ft | 256 kts | 89° |
| 2026-05-01 11:02 | 56.03061 | 39.92294 | 25208 ft | 256 kts | 89° |
| 2026-05-01 11:02 | 56.03107 | 39.95495 | 25208 ft | 257 kts | 89° |
| 2026-05-01 11:03 | 56.03152 | 39.98680 | 25209 ft | 255 kts | 89° |
| 2026-05-01 11:03 | 56.03195 | 40.01864 | 25209 ft | 255 kts | 89° |
| 2026-05-01 11:03 | 56.03238 | 40.05005 | 25207 ft | 256 kts | 89° |
| 2026-05-01 11:03 | 56.03280 | 40.08193 | 25207 ft | 257 kts | 89° |
| 2026-05-01 11:04 | 56.03322 | 40.11390 | 25212 ft | 257 kts | 89° |
| 2026-05-01 11:04 | 56.03362 | 40.14591 | 25211 ft | 258 kts | 89° |
| 2026-05-01 11:04 | 56.03402 | 40.17795 | 25207 ft | 258 kts | 90° |
| 2026-05-01 11:04 | 56.03441 | 40.21011 | 25212 ft | 258 kts | 90° |
| 2026-05-01 11:05 | 56.03479 | 40.24220 | 25209 ft | 258 kts | 90° |
| 2026-05-01 11:05 | 56.03517 | 40.27435 | 25207 ft | 259 kts | 90° |
| 2026-05-01 11:05 | 56.03554 | 40.30654 | 25206 ft | 259 kts | 90° |
| 2026-05-01 11:05 | 56.03589 | 40.33870 | 25210 ft | 259 kts | 90° |
| 2026-05-01 11:06 | 56.03625 | 40.37094 | 25206 ft | 259 kts | 90° |
| 2026-05-01 11:06 | 56.03659 | 40.40319 | 25204 ft | 259 kts | 90° |
| 2026-05-01 11:06 | 56.03692 | 40.43538 | 25205 ft | 259 kts | 90° |
| 2026-05-01 11:07 | 56.03756 | 40.49960 | 25203 ft | 259 kts | 90° |
| 2026-05-01 11:07 | 56.03787 | 40.53182 | 25202 ft | 259 kts | 90° |
| 2026-05-01 11:07 | 56.03817 | 40.56412 | 25202 ft | 259 kts | 90° |
| 2026-05-01 11:07 | 56.03846 | 40.59647 | 25201 ft | 259 kts | 90° |
| 2026-05-01 11:08 | 56.03875 | 40.62879 | 25199 ft | 259 kts | 90° |
| 2026-05-01 11:08 | 56.03902 | 40.66057 | 25199 ft | 259 kts | 90° |
| 2026-05-01 11:08 | 56.03955 | 40.72512 | 25196 ft | 259 kts | 90° |
| 2026-05-01 11:09 | 56.03979 | 40.75735 | 25196 ft | 259 kts | 90° |
| 2026-05-01 11:09 | 56.04003 | 40.78959 | 25195 ft | 259 kts | 90° |
| 2026-05-01 11:09 | 56.04026 | 40.82175 | 25191 ft | 259 kts | 90° |
| 2026-05-01 11:10 | 56.04069 | 40.88630 | 25192 ft | 259 kts | 90° |
| 2026-05-01 11:10 | 56.04089 | 40.91846 | 25191 ft | 259 kts | 90° |
| 2026-05-01 11:10 | 56.04109 | 40.95067 | 25192 ft | 259 kts | 90° |
| 2026-05-01 11:10 | 56.04127 | 40.98289 | 25194 ft | 259 kts | 90° |
| 2026-05-01 11:11 | 56.04145 | 41.01457 | 25189 ft | 259 kts | 90° |
| 2026-05-01 11:11 | 56.04162 | 41.04678 | 25189 ft | 259 kts | 90° |
| 2026-05-01 11:11 | 56.04178 | 41.07899 | 25188 ft | 259 kts | 90° |
| 2026-05-01 11:11 | 56.04193 | 41.11115 | 25188 ft | 259 kts | 90° |
| 2026-05-01 11:12 | 56.04207 | 41.14332 | 25186 ft | 259 kts | 90° |
| 2026-05-01 11:12 | 56.04221 | 41.17551 | 25187 ft | 259 kts | 90° |
| 2026-05-01 11:12 | 56.04234 | 41.20766 | 25187 ft | 258 kts | 90° |
| 2026-05-01 11:12 | 56.04246 | 41.23984 | 25188 ft | 258 kts | 90° |
| 2026-05-01 11:13 | 56.04257 | 41.27202 | 25187 ft | 258 kts | 90° |
| 2026-05-01 11:13 | 56.04267 | 41.30415 | 25187 ft | 258 kts | 90° |
| 2026-05-01 11:13 | 56.04276 | 41.33641 | 25186 ft | 258 kts | 90° |
| 2026-05-01 11:13 | 56.04285 | 41.36823 | 25184 ft | 258 kts | 90° |
| 2026-05-01 11:14 | 56.04292 | 41.40034 | 25186 ft | 258 kts | 90° |
| 2026-05-01 11:14 | 56.04299 | 41.43248 | 25188 ft | 258 kts | 90° |
| 2026-05-01 11:14 | 56.04305 | 41.46458 | 25186 ft | 258 kts | 90° |
| 2026-05-01 11:14 | 56.04310 | 41.49675 | 25185 ft | 258 kts | 90° |
| 2026-05-01 11:15 | 56.04315 | 41.52885 | 25182 ft | 258 kts | 90° |
| 2026-05-01 11:15 | 56.04318 | 41.56087 | 25181 ft | 258 kts | 90° |
| 2026-05-01 11:15 | 56.04321 | 41.59291 | 25180 ft | 257 kts | 90° |
| 2026-05-01 11:15 | 56.04323 | 41.62493 | 25180 ft | 257 kts | 90° |
| 2026-05-01 11:16 | 56.04324 | 41.65655 | 25180 ft | 257 kts | 90° |
| 2026-05-01 11:16 | 56.04324 | 41.68847 | 25179 ft | 257 kts | 90° |
| 2026-05-01 11:16 | 56.04323 | 41.72045 | 25179 ft | 257 kts | 90° |
| 2026-05-01 11:16 | 56.04322 | 41.75236 | 25177 ft | 256 kts | 90° |
| 2026-05-01 11:17 | 56.04320 | 41.78426 | 25180 ft | 256 kts | 90° |
| 2026-05-01 11:17 | 56.04317 | 41.81612 | 25176 ft | 256 kts | 90° |
| 2026-05-01 11:17 | 56.04313 | 41.84796 | 25179 ft | 256 kts | 90° |
| 2026-05-01 11:17 | 56.04308 | 41.87976 | 25178 ft | 255 kts | 90° |
| 2026-05-01 11:18 | 56.04303 | 41.91114 | 25175 ft | 255 kts | 90° |
| 2026-05-01 11:18 | 56.04296 | 41.94285 | 25176 ft | 255 kts | 90° |
| 2026-05-01 11:18 | 56.04289 | 41.97457 | 25177 ft | 255 kts | 90° |
| 2026-05-01 11:18 | 56.04281 | 42.00638 | 25177 ft | 255 kts | 90° |
| 2026-05-01 11:19 | 56.04273 | 42.03809 | 25176 ft | 255 kts | 90° |
| 2026-05-01 11:19 | 56.04263 | 42.06978 | 25178 ft | 255 kts | 90° |
| 2026-05-01 11:19 | 56.04253 | 42.10145 | 25175 ft | 255 kts | 90° |
| 2026-05-01 11:19 | 56.04241 | 42.13318 | 25176 ft | 255 kts | 90° |
| 2026-05-01 11:20 | 56.04229 | 42.16492 | 25175 ft | 254 kts | 90° |
| 2026-05-01 11:20 | 56.04217 | 42.19655 | 25176 ft | 254 kts | 90° |
| 2026-05-01 11:20 | 56.04203 | 42.22818 | 25175 ft | 254 kts | 90° |
| 2026-05-01 11:20 | 56.04189 | 42.25979 | 25172 ft | 254 kts | 90° |
| 2026-05-01 11:21 | 56.04173 | 42.29141 | 25171 ft | 254 kts | 90° |
| 2026-05-01 11:21 | 56.04157 | 42.32296 | 25172 ft | 254 kts | 90° |
| 2026-05-01 11:21 | 56.04141 | 42.35460 | 25171 ft | 254 kts | 90° |
| 2026-05-01 11:21 | 56.04123 | 42.38570 | 25171 ft | 253 kts | 90° |
| 2026-05-01 11:22 | 56.04105 | 42.41721 | 25175 ft | 253 kts | 90° |
| 2026-05-01 11:22 | 56.04086 | 42.44868 | 25177 ft | 253 kts | 90° |
| 2026-05-01 11:22 | 56.04066 | 42.48012 | 25174 ft | 253 kts | 90° |
| 2026-05-01 11:22 | 56.04045 | 42.51160 | 25173 ft | 253 kts | 90° |
| 2026-05-01 11:23 | 56.04023 | 42.54304 | 25172 ft | 253 kts | 90° |
| 2026-05-01 11:23 | 56.03989 | 42.57444 | 25168 ft | 253 kts | 91° |
| 2026-05-01 11:23 | 56.03947 | 42.60591 | 25168 ft | 253 kts | 91° |
| 2026-05-01 11:23 | 56.03908 | 42.63734 | 25170 ft | 253 kts | 91° |
| 2026-05-01 11:24 | 56.03870 | 42.66880 | 25169 ft | 253 kts | 90° |
| 2026-05-01 11:24 | 56.03832 | 42.70020 | 25167 ft | 252 kts | 90° |
| 2026-05-01 11:24 | 56.03751 | 42.76290 | 25164 ft | 252 kts | 91° |
| 2026-05-01 11:25 | 56.03709 | 42.79423 | 25167 ft | 252 kts | 91° |
| 2026-05-01 11:25 | 56.03625 | 42.85643 | 25165 ft | 252 kts | 91° |
| 2026-05-01 11:25 | 56.03581 | 42.88777 | 25165 ft | 252 kts | 91° |
| 2026-05-01 11:26 | 56.03536 | 42.91907 | 25164 ft | 252 kts | 91° |
| 2026-05-01 11:26 | 56.03444 | 42.98161 | 25161 ft | 252 kts | 91° |
| 2026-05-01 11:26 | 56.03397 | 43.01292 | 25161 ft | 252 kts | 91° |
| 2026-05-01 11:27 | 56.03349 | 43.04425 | 25162 ft | 252 kts | 91° |
| 2026-05-01 11:27 | 56.03318 | 43.06492 | 25163 ft | 252 kts | 91° |
| 2026-05-01 11:27 | 56.03268 | 43.09620 | 25163 ft | 251 kts | 91° |
| 2026-05-01 11:27 | 56.03202 | 43.13764 | 25157 ft | 251 kts | 91° |
| 2026-05-01 11:28 | 56.03153 | 43.16777 | 25159 ft | 251 kts | 90° |
| 2026-05-01 11:28 | 56.03101 | 43.19896 | 25158 ft | 251 kts | 91° |
| 2026-05-01 11:28 | 56.03066 | 43.22007 | 25158 ft | 251 kts | 91° |
| 2026-05-01 11:29 | 56.02959 | 43.28249 | 25155 ft | 251 kts | 91° |
| 2026-05-01 11:29 | 56.02904 | 43.31370 | 25156 ft | 251 kts | 91° |
| 2026-05-01 11:29 | 56.03114 | 43.37552 | 25156 ft | 248 kts | 81° |
| 2026-05-01 11:30 | 56.03341 | 43.40613 | 25155 ft | 249 kts | 81° |
| 2026-05-01 11:30 | 56.03548 | 43.43643 | 25155 ft | 249 kts | 82° |
| 2026-05-01 11:30 | 56.03753 | 43.46722 | 25152 ft | 249 kts | 82° |
| 2026-05-01 11:30 | 56.03960 | 43.49796 | 25156 ft | 249 kts | 82° |
| 2026-05-01 11:31 | 56.04170 | 43.52877 | 25151 ft | 249 kts | 82° |
| 2026-05-01 11:31 | 56.04378 | 43.55949 | 25152 ft | 249 kts | 82° |
| 2026-05-01 11:31 | 56.04585 | 43.59025 | 25153 ft | 249 kts | 82° |
| 2026-05-01 11:31 | 56.04792 | 43.62109 | 25154 ft | 249 kts | 82° |
| 2026-05-01 11:32 | 56.04998 | 43.65186 | 25153 ft | 249 kts | 82° |
| 2026-05-01 11:32 | 56.05202 | 43.68262 | 25155 ft | 249 kts | 82° |
| 2026-05-01 11:32 | 56.05406 | 43.71335 | 25154 ft | 249 kts | 82° |
| 2026-05-01 11:32 | 56.05609 | 43.74414 | 25152 ft | 249 kts | 82° |
| 2026-05-01 11:33 | 56.05812 | 43.77481 | 25149 ft | 248 kts | 82° |
| 2026-05-01 11:33 | 56.06011 | 43.80517 | 25153 ft | 248 kts | 82° |
| 2026-05-01 11:33 | 56.06211 | 43.83581 | 25153 ft | 248 kts | 82° |
| 2026-05-01 11:33 | 56.06410 | 43.86646 | 25154 ft | 248 kts | 82° |
| 2026-05-01 11:34 | 56.06609 | 43.89710 | 25153 ft | 248 kts | 82° |
| 2026-05-01 11:34 | 56.06807 | 43.92776 | 25154 ft | 248 kts | 82° |
| 2026-05-01 11:34 | 56.07003 | 43.95835 | 25151 ft | 248 kts | 82° |
| 2026-05-01 11:34 | 56.07200 | 43.98902 | 25152 ft | 247 kts | 82° |
| 2026-05-01 11:35 | 56.07395 | 44.01956 | 25149 ft | 247 kts | 82° |
| 2026-05-01 11:35 | 56.07590 | 44.05013 | 25151 ft | 247 kts | 82° |
| 2026-05-01 11:35 | 56.07784 | 44.08075 | 25148 ft | 247 kts | 82° |
| 2026-05-01 11:35 | 56.07977 | 44.11135 | 25154 ft | 247 kts | 82° |
| 2026-05-01 11:36 | 56.08168 | 44.14189 | 25150 ft | 247 kts | 82° |
| 2026-05-01 11:36 | 56.08359 | 44.17238 | 25144 ft | 246 kts | 82° |
| 2026-05-01 11:36 | 56.08547 | 44.20255 | 25146 ft | 246 kts | 82° |
| 2026-05-01 11:36 | 56.08736 | 44.23304 | 25148 ft | 246 kts | 82° |
| 2026-05-01 11:37 | 56.08924 | 44.26346 | 25147 ft | 246 kts | 82° |
| 2026-05-01 11:37 | 56.09112 | 44.29405 | 25144 ft | 246 kts | 82° |
| 2026-05-01 11:37 | 56.09299 | 44.32451 | 25148 ft | 246 kts | 82° |
| 2026-05-01 11:37 | 56.09483 | 44.35473 | 25147 ft | 246 kts | 82° |
| 2026-05-01 11:38 | 56.09669 | 44.38526 | 25138 ft | 246 kts | 82° |
| 2026-05-01 11:38 | 56.09853 | 44.41571 | 25141 ft | 246 kts | 82° |
| 2026-05-01 11:38 | 56.10036 | 44.44613 | 25143 ft | 245 kts | 82° |
| 2026-05-01 11:38 | 56.10219 | 44.47652 | 25138 ft | 246 kts | 82° |
| 2026-05-01 11:39 | 56.10400 | 44.50688 | 25145 ft | 246 kts | 83° |
| 2026-05-01 11:39 | 56.10582 | 44.53735 | 25141 ft | 245 kts | 82° |
| 2026-05-01 11:39 | 56.10762 | 44.56775 | 25141 ft | 245 kts | 83° |
| 2026-05-01 11:39 | 56.10942 | 44.59815 | 25141 ft | 245 kts | 83° |
| 2026-05-01 11:40 | 56.11120 | 44.62847 | 25140 ft | 245 kts | 83° |
| 2026-05-01 11:40 | 56.11274 | 44.65901 | 25137 ft | 245 kts | 88° |
| 2026-05-01 11:40 | 56.11237 | 44.68914 | 25135 ft | 245 kts | 91° |
| 2026-05-01 11:40 | 56.11163 | 44.71964 | 25136 ft | 245 kts | 91° |
| 2026-05-01 11:41 | 56.11095 | 44.75015 | 25135 ft | 245 kts | 91° |
| 2026-05-01 11:41 | 56.11036 | 44.78061 | 25135 ft | 245 kts | 91° |
| 2026-05-01 11:41 | 56.10977 | 44.81117 | 25138 ft | 245 kts | 91° |
| 2026-05-01 11:41 | 56.10915 | 44.84168 | 25136 ft | 245 kts | 92° |
| 2026-05-01 11:42 | 56.10852 | 44.87219 | 25137 ft | 245 kts | 92° |
| 2026-05-01 11:42 | 56.10788 | 44.90275 | 25135 ft | 245 kts | 92° |
| 2026-05-01 11:42 | 56.10724 | 44.93335 | 25135 ft | 245 kts | 92° |
| 2026-05-01 11:42 | 56.10659 | 44.96382 | 25134 ft | 245 kts | 92° |
| 2026-05-01 11:43 | 56.10593 | 44.99436 | 25134 ft | 245 kts | 92° |
| 2026-05-01 11:43 | 56.10527 | 45.02486 | 25136 ft | 245 kts | 93° |
| 2026-05-01 11:43 | 56.10455 | 45.05536 | 25136 ft | 245 kts | 93° |
| 2026-05-01 11:44 | 56.10310 | 45.11606 | 25133 ft | 245 kts | 94° |
| 2026-05-01 11:44 | 56.10237 | 45.14660 | 25132 ft | 245 kts | 94° |
| 2026-05-01 11:44 | 56.10166 | 45.17713 | 25132 ft | 245 kts | 94° |
| 2026-05-01 11:44 | 56.10096 | 45.20761 | 25132 ft | 245 kts | 94° |
| 2026-05-01 11:45 | 56.10025 | 45.23819 | 25126 ft | 245 kts | 94° |
| 2026-05-01 11:45 | 56.09952 | 45.26867 | 25127 ft | 245 kts | 94° |
| 2026-05-01 11:45 | 56.09878 | 45.29925 | 25126 ft | 245 kts | 94° |
| 2026-05-01 11:45 | 56.09804 | 45.32985 | 25128 ft | 245 kts | 94° |
| 2026-05-01 11:46 | 56.09729 | 45.36035 | 25124 ft | 245 kts | 95° |
| 2026-05-01 11:46 | 56.09653 | 45.39096 | 25123 ft | 245 kts | 95° |
| 2026-05-01 11:46 | 56.09577 | 45.42111 | 25123 ft | 245 kts | 95° |
| 2026-05-01 11:46 | 56.09500 | 45.45157 | 25122 ft | 245 kts | 95° |
| 2026-05-01 11:47 | 56.09423 | 45.48208 | 25123 ft | 245 kts | 95° |
| 2026-05-01 11:47 | 56.09344 | 45.51258 | 25117 ft | 245 kts | 95° |
| 2026-05-01 11:47 | 56.09265 | 45.54309 | 25116 ft | 245 kts | 95° |
| 2026-05-01 11:47 | 56.09185 | 45.57357 | 25120 ft | 245 kts | 95° |
| 2026-05-01 11:48 | 56.09104 | 45.60413 | 25118 ft | 245 kts | 95° |
| 2026-05-01 11:48 | 56.09022 | 45.63467 | 25118 ft | 245 kts | 96° |
| 2026-05-01 11:48 | 56.08941 | 45.66489 | 25117 ft | 245 kts | 96° |
| 2026-05-01 11:48 | 56.08858 | 45.69536 | 25117 ft | 245 kts | 96° |
| 2026-05-01 11:49 | 56.08774 | 45.72589 | 25115 ft | 245 kts | 96° |
| 2026-05-01 11:49 | 56.08689 | 45.75639 | 25109 ft | 245 kts | 96° |
| 2026-05-01 11:49 | 56.08604 | 45.78690 | 25112 ft | 245 kts | 96° |
| 2026-05-01 11:49 | 56.08518 | 45.81743 | 25113 ft | 245 kts | 96° |
| 2026-05-01 11:50 | 56.08431 | 45.84793 | 25112 ft | 245 kts | 96° |
| 2026-05-01 11:50 | 56.08343 | 45.87848 | 25107 ft | 245 kts | 96° |
| 2026-05-01 11:50 | 56.08255 | 45.90897 | 25111 ft | 245 kts | 96° |
| 2026-05-01 11:50 | 56.08166 | 45.93946 | 25110 ft | 245 kts | 97° |
| 2026-05-01 11:51 | 56.08076 | 45.96992 | 25113 ft | 245 kts | 97° |
| 2026-05-01 11:51 | 56.07986 | 46.00038 | 25110 ft | 245 kts | 97° |
| 2026-05-01 11:51 | 56.07895 | 46.03083 | 25111 ft | 245 kts | 97° |
| 2026-05-01 11:51 | 56.07803 | 46.06133 | 25109 ft | 245 kts | 97° |
| 2026-05-01 11:52 | 56.07710 | 46.09170 | 25110 ft | 244 kts | 97° |
| 2026-05-01 11:52 | 56.07617 | 46.12205 | 25113 ft | 244 kts | 97° |
| 2026-05-01 11:52 | 56.07523 | 46.15244 | 25108 ft | 244 kts | 97° |
| 2026-05-01 11:52 | 56.07428 | 46.18283 | 25110 ft | 244 kts | 97° |
| 2026-05-01 11:53 | 56.07333 | 46.21315 | 25110 ft | 244 kts | 97° |
| 2026-05-01 11:53 | 56.07238 | 46.24311 | 25107 ft | 244 kts | 97° |
| 2026-05-01 11:53 | 56.07141 | 46.27347 | 25105 ft | 244 kts | 97° |
| 2026-05-01 11:53 | 56.07043 | 46.30377 | 25104 ft | 244 kts | 97° |
| 2026-05-01 11:54 | 56.06945 | 46.33407 | 25110 ft | 244 kts | 97° |
| 2026-05-01 11:54 | 56.06846 | 46.36431 | 25103 ft | 244 kts | 97° |
| 2026-05-01 11:54 | 56.06747 | 46.39460 | 25109 ft | 244 kts | 97° |
| 2026-05-01 11:54 | 56.06646 | 46.42488 | 25106 ft | 244 kts | 97° |
| 2026-05-01 11:55 | 56.06545 | 46.45519 | 25103 ft | 244 kts | 97° |
| 2026-05-01 11:55 | 56.06443 | 46.48547 | 25108 ft | 244 kts | 97° |
| 2026-05-01 11:55 | 56.06342 | 46.51587 | 25106 ft | 244 kts | 96° |
| 2026-05-01 11:55 | 56.06369 | 46.54628 | 25105 ft | 244 kts | 92° |
| 2026-05-01 11:56 | 56.06406 | 46.57632 | 25103 ft | 244 kts | 92° |
| 2026-05-01 11:56 | 56.06435 | 46.60676 | 25105 ft | 244 kts | 92° |
| 2026-05-01 11:56 | 56.06465 | 46.63718 | 25101 ft | 244 kts | 92° |
| 2026-05-01 11:56 | 56.06496 | 46.66764 | 25103 ft | 244 kts | 92° |
| 2026-05-01 11:57 | 56.06526 | 46.69806 | 25103 ft | 244 kts | 92° |
| 2026-05-01 11:57 | 56.06556 | 46.72839 | 25105 ft | 244 kts | 92° |
| 2026-05-01 11:57 | 56.06584 | 46.75877 | 25104 ft | 244 kts | 92° |
| 2026-05-01 11:57 | 56.06612 | 46.78922 | 25102 ft | 244 kts | 92° |
| 2026-05-01 11:58 | 56.06639 | 46.81961 | 25101 ft | 244 kts | 92° |
| 2026-05-01 11:58 | 56.06665 | 46.85003 | 25103 ft | 244 kts | 92° |
| 2026-05-01 11:58 | 56.06715 | 46.91046 | 25099 ft | 244 kts | 92° |
| 2026-05-01 11:59 | 56.06739 | 46.94084 | 25100 ft | 244 kts | 91° |
| 2026-05-01 11:59 | 56.06763 | 46.97124 | 25098 ft | 244 kts | 91° |
| 2026-05-01 11:59 | 56.06785 | 47.00157 | 25095 ft | 244 kts | 91° |
| 2026-05-01 12:00 | 56.06827 | 47.06181 | 25097 ft | 245 kts | 91° |
| 2026-05-01 12:00 | 56.06848 | 47.09286 | 25095 ft | 245 kts | 91° |
| 2026-05-01 12:00 | 56.06885 | 47.15346 | 25094 ft | 245 kts | 92° |
| 2026-05-01 12:01 | 56.06903 | 47.18388 | 25095 ft | 245 kts | 92° |
| 2026-05-01 12:01 | 56.06920 | 47.21436 | 25096 ft | 245 kts | 91° |
| 2026-05-01 12:01 | 56.06936 | 47.24481 | 25096 ft | 245 kts | 92° |
| 2026-05-01 12:01 | 56.06952 | 47.27529 | 25093 ft | 244 kts | 92° |
| 2026-05-01 12:02 | 56.06967 | 47.30581 | 25095 ft | 245 kts | 92° |
| 2026-05-01 12:02 | 56.06982 | 47.33628 | 25097 ft | 245 kts | 92° |
| 2026-05-01 12:02 | 56.06995 | 47.36674 | 25094 ft | 245 kts | 92° |
| 2026-05-01 12:02 | 56.07007 | 47.39714 | 25093 ft | 244 kts | 92° |
| 2026-05-01 12:03 | 56.07019 | 47.42756 | 25095 ft | 244 kts | 92° |
| 2026-05-01 12:03 | 56.07031 | 47.45796 | 25096 ft | 244 kts | 92° |
| 2026-05-01 12:03 | 56.07041 | 47.48807 | 25098 ft | 244 kts | 92° |
| 2026-05-01 12:03 | 56.07051 | 47.51865 | 25100 ft | 246 kts | 92° |
| 2026-05-01 12:04 | 56.07060 | 47.54929 | 25102 ft | 246 kts | 92° |
| 2026-05-01 12:04 | 56.07069 | 47.57993 | 25104 ft | 247 kts | 92° |
| 2026-05-01 12:04 | 56.07076 | 47.61069 | 25105 ft | 247 kts | 91° |
| 2026-05-01 12:04 | 56.07084 | 47.64157 | 25103 ft | 248 kts | 92° |
| 2026-05-01 12:05 | 56.07090 | 47.67245 | 25099 ft | 247 kts | 92° |
| 2026-05-01 12:05 | 56.07098 | 47.73515 | 24653 ft | 256 kts | 92° |
| 2026-05-01 12:05 | 56.07103 | 47.76692 | 24357 ft | 255 kts | 92° |
| 2026-05-01 12:06 | 56.07106 | 47.79858 | 24067 ft | 254 kts | 92° |
| 2026-05-01 12:06 | 56.07109 | 47.83024 | 23777 ft | 254 kts | 92° |
| 2026-05-01 12:06 | 56.07111 | 47.86141 | 23454 ft | 253 kts | 92° |
| 2026-05-01 12:06 | 56.07111 | 47.89279 | 23102 ft | 252 kts | 92° |
| 2026-05-01 12:07 | 56.07111 | 47.92392 | 22766 ft | 251 kts | 92° |
| 2026-05-01 12:07 | 56.07111 | 47.95545 | 22422 ft | 251 kts | 92° |
| 2026-05-01 12:07 | 56.07111 | 47.98662 | 22091 ft | 250 kts | 92° |
| 2026-05-01 12:07 | 56.07111 | 48.01776 | 21761 ft | 253 kts | 92° |
| 2026-05-01 12:08 | 56.07108 | 48.04979 | 21432 ft | 261 kts | 92° |
| 2026-05-01 12:08 | 56.07105 | 48.08273 | 21118 ft | 266 kts | 92° |
| 2026-05-01 12:08 | 56.07102 | 48.11548 | 21088 ft | 259 kts | 91° |
| 2026-05-01 12:08 | 56.07098 | 48.14749 | 21083 ft | 254 kts | 92° |
| 2026-05-01 12:09 | 56.07092 | 48.17865 | 20944 ft | 256 kts | 92° |
| 2026-05-01 12:09 | 56.07084 | 48.21133 | 20647 ft | 261 kts | 92° |
| 2026-05-01 12:09 | 56.07077 | 48.24364 | 20367 ft | 264 kts | 92° |
| 2026-05-01 12:09 | 56.07069 | 48.27668 | 20078 ft | 266 kts | 92° |
| 2026-05-01 12:10 | 56.07060 | 48.30978 | 19795 ft | 266 kts | 92° |
| 2026-05-01 12:10 | 56.07039 | 48.37597 | 19236 ft | 265 kts | 91° |
| 2026-05-01 12:10 | 56.07028 | 48.40887 | 19091 ft | 260 kts | 92° |
| 2026-05-01 12:11 | 56.07004 | 48.47185 | 19093 ft | 247 kts | 92° |
| 2026-05-01 12:11 | 56.06990 | 48.50242 | 19093 ft | 244 kts | 92° |
| 2026-05-01 12:11 | 56.06976 | 48.53264 | 19089 ft | 241 kts | 92° |
| 2026-05-01 12:12 | 56.06962 | 48.56258 | 19088 ft | 240 kts | 91° |
| 2026-05-01 12:12 | 56.06947 | 48.59242 | 19087 ft | 240 kts | 92° |
| 2026-05-01 12:12 | 56.06931 | 48.62234 | 19084 ft | 240 kts | 92° |
| 2026-05-01 12:12 | 56.06914 | 48.65224 | 19084 ft | 240 kts | 92° |
| 2026-05-01 12:13 | 56.06897 | 48.68177 | 19086 ft | 241 kts | 92° |
| 2026-05-01 12:13 | 56.06879 | 48.71175 | 19083 ft | 241 kts | 92° |
| 2026-05-01 12:13 | 56.06860 | 48.74165 | 19084 ft | 241 kts | 92° |
| 2026-05-01 12:13 | 56.06841 | 48.77160 | 19083 ft | 241 kts | 92° |
| 2026-05-01 12:14 | 56.06821 | 48.80160 | 19085 ft | 241 kts | 92° |
| 2026-05-01 12:14 | 56.06807 | 48.82145 | 19086 ft | 241 kts | 92° |
| 2026-05-01 12:14 | 56.06778 | 48.86132 | 19087 ft | 241 kts | 92° |
| 2026-05-01 12:14 | 56.06756 | 48.89131 | 19088 ft | 241 kts | 92° |
| 2026-05-01 12:15 | 56.06740 | 48.91156 | 19085 ft | 241 kts | 92° |
| 2026-05-01 12:15 | 56.06717 | 48.94137 | 19086 ft | 241 kts | 92° |
| 2026-05-01 12:15 | 56.06692 | 48.97144 | 19086 ft | 242 kts | 92° |
| 2026-05-01 12:15 | 56.06667 | 49.00157 | 19083 ft | 242 kts | 92° |
| 2026-05-01 12:16 | 56.06641 | 49.03154 | 19083 ft | 242 kts | 92° |
| 2026-05-01 12:16 | 56.06614 | 49.06189 | 19083 ft | 242 kts | 92° |
| 2026-05-01 12:16 | 56.06587 | 49.09200 | 19084 ft | 243 kts | 92° |
| 2026-05-01 12:16 | 56.06559 | 49.12224 | 19083 ft | 244 kts | 92° |
| 2026-05-01 12:17 | 56.06530 | 49.15264 | 19081 ft | 244 kts | 92° |
| 2026-05-01 12:17 | 56.06500 | 49.18293 | 19079 ft | 243 kts | 93° |
| 2026-05-01 12:17 | 56.06470 | 49.21287 | 19080 ft | 243 kts | 93° |
| 2026-05-01 12:17 | 56.06439 | 49.24338 | 19080 ft | 242 kts | 92° |
| 2026-05-01 12:18 | 56.06407 | 49.27351 | 19077 ft | 242 kts | 92° |
| 2026-05-01 12:18 | 56.06374 | 49.30364 | 19077 ft | 242 kts | 92° |
| 2026-05-01 12:18 | 56.06341 | 49.33352 | 19079 ft | 242 kts | 92° |
| 2026-05-01 12:18 | 56.06307 | 49.36370 | 19077 ft | 243 kts | 93° |
| 2026-05-01 12:19 | 56.06272 | 49.39406 | 19077 ft | 245 kts | 93° |
| 2026-05-01 12:19 | 56.06235 | 49.42485 | 19075 ft | 249 kts | 93° |
| 2026-05-01 12:19 | 56.06197 | 49.45612 | 19077 ft | 252 kts | 93° |
| 2026-05-01 12:19 | 56.06159 | 49.48763 | 19077 ft | 254 kts | 93° |
| 2026-05-01 12:20 | 56.06119 | 49.51925 | 19077 ft | 255 kts | 93° |
| 2026-05-01 12:20 | 56.06079 | 49.55064 | 19076 ft | 255 kts | 93° |
| 2026-05-01 12:20 | 56.06038 | 49.58240 | 19075 ft | 256 kts | 93° |
| 2026-05-01 12:20 | 56.05996 | 49.61424 | 19077 ft | 256 kts | 93° |
| 2026-05-01 12:21 | 56.05952 | 49.64603 | 19075 ft | 256 kts | 93° |
| 2026-05-01 12:21 | 56.05908 | 49.67787 | 19078 ft | 256 kts | 93° |
| 2026-05-01 12:21 | 56.05864 | 49.70969 | 19078 ft | 256 kts | 93° |
| 2026-05-01 12:21 | 56.05818 | 49.74150 | 19077 ft | 256 kts | 93° |
| 2026-05-01 12:22 | 56.05772 | 49.77335 | 19079 ft | 256 kts | 93° |
| 2026-05-01 12:22 | 56.05724 | 49.80525 | 19075 ft | 256 kts | 93° |
| 2026-05-01 12:22 | 56.05676 | 49.83710 | 19074 ft | 255 kts | 93° |
| 2026-05-01 12:22 | 56.05629 | 49.86841 | 19073 ft | 255 kts | 93° |
| 2026-05-01 12:23 | 56.05579 | 49.90015 | 19075 ft | 255 kts | 93° |
| 2026-05-01 12:23 | 56.05529 | 49.93183 | 19075 ft | 255 kts | 93° |
| 2026-05-01 12:23 | 56.05478 | 49.96349 | 19076 ft | 255 kts | 93° |
| 2026-05-01 12:23 | 56.05427 | 49.99515 | 19072 ft | 254 kts | 93° |
| 2026-05-01 12:24 | 56.05374 | 50.02681 | 19073 ft | 254 kts | 93° |
| 2026-05-01 12:24 | 56.05321 | 50.05840 | 19073 ft | 254 kts | 93° |
| 2026-05-01 12:24 | 56.05266 | 50.09006 | 19072 ft | 254 kts | 93° |
| 2026-05-01 12:24 | 56.05212 | 50.12170 | 19072 ft | 254 kts | 93° |
| 2026-05-01 12:25 | 56.05156 | 50.15333 | 19071 ft | 254 kts | 93° |
| 2026-05-01 12:25 | 56.05043 | 50.21620 | 19074 ft | 254 kts | 93° |
| 2026-05-01 12:25 | 56.04985 | 50.24771 | 19069 ft | 254 kts | 93° |
| 2026-05-01 12:26 | 56.04926 | 50.27927 | 19068 ft | 254 kts | 93° |
| 2026-05-01 12:26 | 56.04806 | 50.34230 | 19069 ft | 253 kts | 93° |
| 2026-05-01 12:26 | 56.04745 | 50.37376 | 19071 ft | 253 kts | 93° |
| 2026-05-01 12:27 | 56.04684 | 50.40529 | 19066 ft | 253 kts | 93° |
| 2026-05-01 12:27 | 56.04557 | 50.46829 | 19069 ft | 253 kts | 93° |
| 2026-05-01 12:28 | 56.04428 | 50.53129 | 19066 ft | 253 kts | 93° |
| 2026-05-01 12:28 | 56.04362 | 50.56282 | 19065 ft | 253 kts | 93° |
| 2026-05-01 12:28 | 56.04229 | 50.62537 | 19063 ft | 253 kts | 93° |
| 2026-05-01 12:29 | 56.04160 | 50.65690 | 19062 ft | 253 kts | 93° |
| 2026-05-01 12:29 | 56.04092 | 50.68837 | 19061 ft | 253 kts | 94° |
| 2026-05-01 12:29 | 56.03951 | 50.75135 | 19060 ft | 253 kts | 94° |
| 2026-05-01 12:30 | 56.03807 | 50.81436 | 19059 ft | 253 kts | 94° |
| 2026-05-01 12:30 | 56.03754 | 50.84586 | 19059 ft | 253 kts | 90° |
| 2026-05-01 12:30 | 56.03788 | 50.87755 | 19060 ft | 256 kts | 90° |
| 2026-05-01 12:31 | 56.03796 | 50.90948 | 19060 ft | 257 kts | 91° |
| 2026-05-01 12:31 | 56.03801 | 50.94146 | 19058 ft | 258 kts | 91° |
| 2026-05-01 12:31 | 56.03814 | 50.97369 | 19064 ft | 259 kts | 91° |
| 2026-05-01 12:31 | 56.03830 | 51.00593 | 19057 ft | 259 kts | 91° |
| 2026-05-01 12:32 | 56.03843 | 51.03814 | 19055 ft | 259 kts | 91° |
| 2026-05-01 12:32 | 56.03865 | 51.10226 | 19054 ft | 259 kts | 91° |
| 2026-05-01 12:32 | 56.03875 | 51.13448 | 19055 ft | 259 kts | 91° |
| 2026-05-01 12:33 | 56.03884 | 51.16677 | 19057 ft | 259 kts | 91° |
| 2026-05-01 12:33 | 56.03893 | 51.19891 | 19048 ft | 259 kts | 91° |
| 2026-05-01 12:33 | 56.03900 | 51.23109 | 19049 ft | 259 kts | 91° |
| 2026-05-01 12:33 | 56.03907 | 51.26349 | 19048 ft | 259 kts | 91° |
| 2026-05-01 12:34 | 56.03912 | 51.29560 | 19050 ft | 259 kts | 92° |
| 2026-05-01 12:34 | 56.03917 | 51.32783 | 19047 ft | 259 kts | 92° |
| 2026-05-01 12:34 | 56.03922 | 51.36014 | 19047 ft | 259 kts | 92° |
| 2026-05-01 12:34 | 56.03926 | 51.39196 | 19043 ft | 259 kts | 92° |
| 2026-05-01 12:35 | 56.03928 | 51.42417 | 19044 ft | 259 kts | 92° |
| 2026-05-01 12:35 | 56.03929 | 51.45650 | 19043 ft | 259 kts | 92° |
| 2026-05-01 12:35 | 56.03931 | 51.48878 | 19043 ft | 260 kts | 92° |
| 2026-05-01 12:35 | 56.03933 | 51.52107 | 19044 ft | 260 kts | 92° |
| 2026-05-01 12:36 | 56.03936 | 51.55341 | 19043 ft | 260 kts | 92° |
| 2026-05-01 12:36 | 56.03941 | 51.58578 | 19042 ft | 261 kts | 92° |
| 2026-05-01 12:36 | 56.03946 | 51.61832 | 19040 ft | 262 kts | 92° |
| 2026-05-01 12:36 | 56.03951 | 51.65092 | 19039 ft | 262 kts | 92° |
| 2026-05-01 12:37 | 56.03955 | 51.68355 | 19038 ft | 262 kts | 92° |
| 2026-05-01 12:37 | 56.03957 | 51.71561 | 19036 ft | 261 kts | 92° |
| 2026-05-01 12:37 | 56.03957 | 51.74809 | 19034 ft | 261 kts | 92° |
| 2026-05-01 12:37 | 56.03959 | 51.78059 | 19034 ft | 261 kts | 92° |
| 2026-05-01 12:38 | 56.03962 | 51.81305 | 19031 ft | 261 kts | 92° |
| 2026-05-01 12:38 | 56.03967 | 51.84546 | 19038 ft | 261 kts | 92° |
| 2026-05-01 12:38 | 56.03974 | 51.87805 | 19035 ft | 262 kts | 92° |
| 2026-05-01 12:38 | 56.04167 | 51.91050 | 18877 ft | 265 kts | 78° |
| 2026-05-01 12:39 | 56.04862 | 51.94093 | 18555 ft | 264 kts | 61° |
| 2026-05-01 12:39 | 56.06011 | 51.96621 | 18227 ft | 262 kts | 44° |
| 2026-05-01 12:39 | 56.07513 | 51.98449 | 17868 ft | 262 kts | 28° |
| 2026-05-01 12:39 | 56.09132 | 51.99932 | 17502 ft | 260 kts | 29° |
| 2026-05-01 12:40 | 56.10632 | 52.01659 | 17146 ft | 259 kts | 40° |
| 2026-05-01 12:40 | 56.11925 | 52.03909 | 16790 ft | 258 kts | 49° |
| 2026-05-01 12:40 | 56.13107 | 52.06334 | 16438 ft | 258 kts | 50° |
| 2026-05-01 12:40 | 56.14332 | 52.08695 | 16089 ft | 260 kts | 47° |
| 2026-05-01 12:41 | 56.15608 | 52.11011 | 15755 ft | 262 kts | 46° |
| 2026-05-01 12:41 | 56.16890 | 52.13353 | 15413 ft | 263 kts | 47° |
| 2026-05-01 12:41 | 56.18157 | 52.15712 | 15081 ft | 263 kts | 47° |
| 2026-05-01 12:41 | 56.19429 | 52.18089 | 14745 ft | 263 kts | 47° |
| 2026-05-01 12:42 | 56.20697 | 52.20447 | 14423 ft | 262 kts | 47° |
| 2026-05-01 12:42 | 56.21950 | 52.22777 | 14099 ft | 262 kts | 47° |
| 2026-05-01 12:42 | 56.23216 | 52.25135 | 13766 ft | 262 kts | 47° |
| 2026-05-01 12:42 | 56.24478 | 52.27491 | 13407 ft | 261 kts | 47° |
| 2026-05-01 12:43 | 56.25735 | 52.29839 | 13050 ft | 260 kts | 47° |
| 2026-05-01 12:43 | 56.26996 | 52.32195 | 12697 ft | 261 kts | 47° |
| 2026-05-01 12:43 | 56.28184 | 52.34643 | 12346 ft | 259 kts | 52° |
| 2026-05-01 12:43 | 56.29328 | 52.37143 | 11999 ft | 259 kts | 52° |
| 2026-05-01 12:44 | 56.30460 | 52.39605 | 11769 ft | 254 kts | 52° |
| 2026-05-01 12:44 | 56.31583 | 52.42046 | 11531 ft | 252 kts | 52° |
| 2026-05-01 12:44 | 56.33799 | 52.46878 | 11078 ft | 248 kts | 52° |
| 2026-05-01 12:45 | 56.36000 | 52.51683 | 10673 ft | 252 kts | 52° |
| 2026-05-01 12:45 | 56.37132 | 52.54160 | 10479 ft | 260 kts | 52° |
| 2026-05-01 12:45 | 56.38296 | 52.56708 | 10252 ft | 265 kts | 52° |
| 2026-05-01 12:46 | 56.39469 | 52.59280 | 10019 ft | 264 kts | 51° |
| 2026-05-01 12:46 | 56.40630 | 52.61827 | 9782 ft | 260 kts | 51° |
| 2026-05-01 12:46 | 56.41773 | 52.64335 | 9534 ft | 257 kts | 51° |
| 2026-05-01 12:46 | 56.42905 | 52.66823 | 9285 ft | 255 kts | 51° |
| 2026-05-01 12:47 | 56.44012 | 52.69258 | 9042 ft | 253 kts | 51° |
| 2026-05-01 12:47 | 56.45079 | 52.71763 | 8796 ft | 250 kts | 58° |
| 2026-05-01 12:47 | 56.45862 | 52.74541 | 8583 ft | 247 kts | 65° |
| 2026-05-01 12:47 | 56.46578 | 52.77355 | 8362 ft | 246 kts | 65° |
| 2026-05-01 12:48 | 56.47301 | 52.80155 | 8149 ft | 246 kts | 64° |
| 2026-05-01 12:48 | 56.48038 | 52.82954 | 7942 ft | 245 kts | 64° |
| 2026-05-01 12:48 | 56.48765 | 52.85724 | 7760 ft | 243 kts | 64° |
| 2026-05-01 12:48 | 56.49485 | 52.88481 | 7577 ft | 241 kts | 64° |
| 2026-05-01 12:49 | 56.50195 | 52.91210 | 7395 ft | 239 kts | 64° |
| 2026-05-01 12:49 | 56.50903 | 52.93926 | 7213 ft | 239 kts | 64° |
| 2026-05-01 12:49 | 56.51610 | 52.96644 | 6998 ft | 238 kts | 64° |
| 2026-05-01 12:49 | 56.52316 | 52.99360 | 6806 ft | 238 kts | 64° |
| 2026-05-01 12:50 | 56.53022 | 53.02074 | 6603 ft | 238 kts | 63° |
| 2026-05-01 12:50 | 56.53724 | 53.04778 | 6399 ft | 236 kts | 63° |
| 2026-05-01 12:50 | 56.54418 | 53.07461 | 6188 ft | 235 kts | 63° |
| 2026-05-01 12:50 | 56.55103 | 53.10103 | 5968 ft | 233 kts | 63° |
| 2026-05-01 12:51 | 56.55791 | 53.12764 | 5778 ft | 233 kts | 63° |
| 2026-05-01 12:51 | 56.56478 | 53.15423 | 5556 ft | 232 kts | 63° |
| 2026-05-01 12:51 | 56.57848 | 53.20738 | 5143 ft | 232 kts | 63° |
| 2026-05-01 12:52 | 56.58534 | 53.23404 | 4949 ft | 233 kts | 63° |
| 2026-05-01 12:52 | 56.60062 | 53.28282 | 4915 ft | 217 kts | 43° |
| 2026-05-01 12:52 | 56.61278 | 53.29826 | 4866 ft | 214 kts | 24° |
| 2026-05-01 12:53 | 56.64258 | 53.30726 | 4313 ft | 217 kts | 6° |
| 2026-05-01 12:53 | 56.65712 | 53.31256 | 4017 ft | 211 kts | 18° |
| 2026-05-01 12:53 | 56.67050 | 53.32286 | 3743 ft | 207 kts | 24° |
| 2026-05-01 12:54 | 56.68337 | 53.33385 | 3454 ft | 201 kts | 24° |
| 2026-05-01 12:54 | 56.70769 | 53.35445 | 2882 ft | 179 kts | 24° |
| 2026-05-01 12:54 | 56.71872 | 53.36381 | 2596 ft | 179 kts | 23° |
| 2026-05-01 12:55 | 56.74109 | 53.38275 | 2205 ft | 157 kts | 24° |
| 2026-05-01 12:55 | 56.75056 | 53.39080 | 2194 ft | 142 kts | 23° |
| 2026-05-01 12:55 | 56.75911 | 53.39809 | 2027 ft | 128 kts | 22° |
| 2026-05-01 12:56 | 56.76671 | 53.40447 | 1872 ft | 114 kts | 22° |
| 2026-05-01 12:56 | 56.77358 | 53.41033 | 1722 ft | 104 kts | 22° |
| 2026-05-01 12:56 | 56.77998 | 53.41577 | 1576 ft | 101 kts | 22° |
| 2026-05-01 12:56 | 56.78614 | 53.42099 | 1434 ft | 91 kts | 21° |
| 2026-05-01 12:57 | 56.79175 | 53.42572 | 1306 ft | 92 kts | 22° |
| 2026-05-01 12:57 | 56.80333 | 53.43549 | 1049 ft | 93 kts | 22° |
| 2026-05-01 12:57 | 56.80931 | 53.44056 | 922 ft | 97 kts | 25° |
| 2026-05-01 12:58 | 56.81540 | 53.44577 | 784 ft | 96 kts | 22° |
| 2026-05-01 12:58 | 56.82129 | 53.45081 | 654 ft | 91 kts | 23° |
| 2026-05-01 12:58 | 56.82695 | 53.45548 | 542 ft | 84 kts | 23° |
| 2026-05-01 12:59 | 56.83039 | 53.45835 | 530 ft | 8 kts | 37° |
| 2026-05-01 12:59 | 56.83110 | 53.45907 | 531 ft | 15 kts | 19° |
| 2026-05-01 12:59 | 56.83354 | 53.46116 | 529 ft | 23 kts | 26° |
| 2026-05-01 13:00 | 56.83608 | 53.46330 | 525 ft | 22 kts | 22° |
| 2026-05-01 13:00 | 56.83719 | 53.46368 | 525 ft | 9 kts | 4° |
| 2026-05-01 13:01 | 56.83495 | 53.46245 | 527 ft | 31 kts | 205° |
| 2026-05-01 13:01 | 56.83292 | 53.46073 | 530 ft | 33 kts | 204° |
| 2026-05-01 13:01 | 56.82964 | 53.45788 | 531 ft | 25 kts | 205° |
| 2026-05-01 13:02 | 56.82916 | 53.45654 | 532 ft | 17 kts | 296° |